THA930 VTBS-LFPG
Flight info
| Callsign | THA930 |
|---|---|
| Flight time | N/A |
| Altitude | 32000 |
| Route | TARED1F TARED P646 DOPID DCT CEA R460 LKN M890 JAL/N0500F340 R594 DPN G333 MERUN L750 RANAH B801 NINOP B475 DOLOS B449 SAHET/N0489F360 B449 ETRAP B447 KRS B143 TUNEK A909 RODAR M11 ERLEV T923 SUBUT T916 MATAL DCT REBLO UM11 CRM UL746 ODERO DCT OPT DCT SOKRU DCT ABETI/N0484F380 DCT PEROL DCT RENKA L610 STAUB/N0462F240 L610 MAMOR DCT ASPAT DCT VIBOM DCT BETEX DCT IDOSA DCT TOLVU/N0486F390 DCT RAPOR DCT VEDUS |
| Aircraft | B77W/H-SDE1E2E3FGHIJ2J3J4J5M1RWXY/LB1D1 |
Departure
| Time | 2026-05-07 21:23 |
|---|---|
| Airport | Suvarnabhumi Airport (VTBS) |
Arrival
| Time | N/A |
|---|---|
| Airport | Charles de Gaulle International Airport (LFPG) |
| Time | Latitude | Longitude | Altitude | Speed | Heading |
|---|---|---|---|---|---|
| 2026-05-07 21:11 | 13.68771 | 100.75420 | 18 ft | 0 kts | 284° |
| 2026-05-07 21:15 | 13.68769 | 100.75426 | 18 ft | 3 kts | 284° |
| 2026-05-07 21:15 | 13.68764 | 100.75447 | 19 ft | 3 kts | 284° |
| 2026-05-07 21:16 | 13.68759 | 100.75468 | 19 ft | 3 kts | 284° |
| 2026-05-07 21:16 | 13.68754 | 100.75484 | 18 ft | 1 kts | 298° |
| 2026-05-07 21:16 | 13.68750 | 100.75492 | 19 ft | 1 kts | 330° |
| 2026-05-07 21:16 | 13.68741 | 100.75495 | 22 ft | 1 kts | 355° |
| 2026-05-07 21:17 | 13.68733 | 100.75495 | 23 ft | 1 kts | 4° |
| 2026-05-07 21:17 | 13.68725 | 100.75495 | 20 ft | 1 kts | 8° |
| 2026-05-07 21:17 | 13.68717 | 100.75493 | 22 ft | 1 kts | 10° |
| 2026-05-07 21:17 | 13.68716 | 100.75493 | 22 ft | 0 kts | 11° |
| 2026-05-07 21:20 | 13.68737 | 100.75498 | 23 ft | 13 kts | 14° |
| 2026-05-07 21:20 | 13.68837 | 100.75541 | 18 ft | 16 kts | 50° |
| 2026-05-07 21:21 | 13.68836 | 100.75652 | 18 ft | 16 kts | 103° |
| 2026-05-07 21:21 | 13.68811 | 100.75763 | 18 ft | 16 kts | 94° |
| 2026-05-07 21:21 | 13.68881 | 100.75837 | 18 ft | 16 kts | 13° |
| 2026-05-07 21:21 | 13.68989 | 100.75865 | 18 ft | 16 kts | 15° |
| 2026-05-07 21:22 | 13.69074 | 100.75928 | 18 ft | 16 kts | 71° |
| 2026-05-07 21:22 | 13.69035 | 100.76052 | 18 ft | 24 kts | 146° |
| 2026-05-07 21:22 | 13.68871 | 100.76025 | 20 ft | 47 kts | 194° |
| 2026-05-07 21:22 | 13.68259 | 100.75863 | 18 ft | 135 kts | 194° |
| 2026-05-07 21:23 | 13.67075 | 100.75557 | 26 ft | 214 kts | 194° |
| 2026-05-07 21:23 | 13.65597 | 100.75175 | 1000 ft | 214 kts | 194° |
| 2026-05-07 21:23 | 13.64176 | 100.74791 | 2181 ft | 220 kts | 195° |
| 2026-05-07 21:23 | 13.62619 | 100.74376 | 2450 ft | 241 kts | 195° |
| 2026-05-07 21:24 | 13.60936 | 100.73933 | 2907 ft | 253 kts | 194° |
| 2026-05-07 21:24 | 13.59230 | 100.73447 | 3343 ft | 262 kts | 202° |
| 2026-05-07 21:24 | 13.57738 | 100.72329 | 3782 ft | 266 kts | 230° |
| 2026-05-07 21:24 | 13.56513 | 100.70878 | 4262 ft | 272 kts | 224° |
| 2026-05-07 21:25 | 13.55110 | 100.69549 | 4908 ft | 276 kts | 221° |
| 2026-05-07 21:25 | 13.53692 | 100.68249 | 5581 ft | 277 kts | 223° |
| 2026-05-07 21:25 | 13.52864 | 100.67324 | 5877 ft | 280 kts | 237° |
| 2026-05-07 21:25 | 13.52271 | 100.65397 | 6330 ft | 286 kts | 273° |
| 2026-05-07 21:26 | 13.52725 | 100.63453 | 6870 ft | 284 kts | 291° |
| 2026-05-07 21:26 | 13.53356 | 100.61504 | 7333 ft | 291 kts | 286° |
| 2026-05-07 21:26 | 13.53967 | 100.59492 | 7861 ft | 291 kts | 296° |
| 2026-05-07 21:26 | 13.55240 | 100.57884 | 8280 ft | 295 kts | 330° |
| 2026-05-07 21:27 | 13.57157 | 100.57221 | 8842 ft | 293 kts | 359° |
| 2026-05-07 21:27 | 13.59185 | 100.57269 | 9354 ft | 293 kts | 4° |
| 2026-05-07 21:27 | 13.61256 | 100.57326 | 9846 ft | 300 kts | 2° |
| 2026-05-07 21:27 | 13.63354 | 100.57372 | 10365 ft | 306 kts | 2° |
| 2026-05-07 21:28 | 13.65553 | 100.57428 | 10514 ft | 326 kts | 2° |
| 2026-05-07 21:28 | 13.67867 | 100.57492 | 10679 ft | 346 kts | 2° |
| 2026-05-07 21:28 | 13.70343 | 100.57559 | 10831 ft | 366 kts | 2° |
| 2026-05-07 21:28 | 13.72944 | 100.57628 | 11107 ft | 380 kts | 2° |
| 2026-05-07 21:29 | 13.75624 | 100.57699 | 11572 ft | 389 kts | 2° |
| 2026-05-07 21:29 | 13.78347 | 100.57757 | 12114 ft | 391 kts | 359° |
| 2026-05-07 21:29 | 13.81030 | 100.57296 | 12415 ft | 398 kts | 338° |
| 2026-05-07 21:29 | 13.83345 | 100.55719 | 12939 ft | 403 kts | 315° |
| 2026-05-07 21:30 | 13.85055 | 100.53445 | 13622 ft | 401 kts | 301° |
| 2026-05-07 21:30 | 13.86473 | 100.50954 | 14000 ft | 407 kts | 300° |
| 2026-05-07 21:30 | 13.87944 | 100.48441 | 14432 ft | 414 kts | 301° |
| 2026-05-07 21:30 | 13.89456 | 100.45906 | 15015 ft | 415 kts | 301° |
| 2026-05-07 21:31 | 13.90975 | 100.43367 | 15572 ft | 418 kts | 301° |
| 2026-05-07 21:31 | 13.92510 | 100.40800 | 16064 ft | 422 kts | 301° |
| 2026-05-07 21:31 | 13.94058 | 100.38209 | 16555 ft | 427 kts | 301° |
| 2026-05-07 21:31 | 13.95617 | 100.35599 | 17059 ft | 430 kts | 301° |
| 2026-05-07 21:32 | 13.97190 | 100.32964 | 17551 ft | 434 kts | 301° |
| 2026-05-07 21:32 | 13.98705 | 100.30258 | 18035 ft | 438 kts | 298° |
| 2026-05-07 21:32 | 14.00140 | 100.27485 | 18459 ft | 441 kts | 297° |
| 2026-05-07 21:32 | 14.01560 | 100.24669 | 18869 ft | 444 kts | 297° |
| 2026-05-07 21:33 | 14.02989 | 100.21837 | 19305 ft | 447 kts | 297° |
| 2026-05-07 21:33 | 14.04434 | 100.18996 | 19737 ft | 450 kts | 297° |
| 2026-05-07 21:33 | 14.05901 | 100.16136 | 20145 ft | 453 kts | 298° |
| 2026-05-07 21:33 | 14.07382 | 100.13263 | 20559 ft | 456 kts | 298° |
| 2026-05-07 21:34 | 14.08877 | 100.10371 | 20972 ft | 459 kts | 298° |
| 2026-05-07 21:34 | 14.10380 | 100.07464 | 21360 ft | 462 kts | 298° |
| 2026-05-07 21:34 | 14.11896 | 100.04529 | 21747 ft | 465 kts | 298° |
| 2026-05-07 21:34 | 14.13416 | 100.01585 | 22147 ft | 467 kts | 298° |
| 2026-05-07 21:35 | 14.14947 | 99.98618 | 22519 ft | 470 kts | 298° |
| 2026-05-07 21:35 | 14.16487 | 99.95632 | 22888 ft | 473 kts | 298° |
| 2026-05-07 21:35 | 14.18040 | 99.92619 | 23254 ft | 476 kts | 298° |
| 2026-05-07 21:35 | 14.19671 | 99.89641 | 23580 ft | 479 kts | 302° |
| 2026-05-07 21:36 | 14.21492 | 99.86767 | 23889 ft | 481 kts | 304° |
| 2026-05-07 21:36 | 14.23404 | 99.83932 | 24241 ft | 482 kts | 305° |
| 2026-05-07 21:36 | 14.25329 | 99.81098 | 24578 ft | 483 kts | 305° |
| 2026-05-07 21:36 | 14.27239 | 99.78246 | 24898 ft | 484 kts | 305° |
| 2026-05-07 21:37 | 14.29134 | 99.75369 | 25210 ft | 486 kts | 304° |
| 2026-05-07 21:37 | 14.31024 | 99.72462 | 25512 ft | 488 kts | 304° |
| 2026-05-07 21:37 | 14.32908 | 99.69545 | 25812 ft | 490 kts | 304° |
| 2026-05-07 21:37 | 14.34797 | 99.66613 | 26104 ft | 492 kts | 304° |
| 2026-05-07 21:38 | 14.36693 | 99.63673 | 26403 ft | 493 kts | 304° |
| 2026-05-07 21:38 | 14.38594 | 99.60725 | 26705 ft | 495 kts | 304° |
| 2026-05-07 21:38 | 14.40504 | 99.57766 | 26986 ft | 496 kts | 304° |
| 2026-05-07 21:38 | 14.42422 | 99.54794 | 27266 ft | 498 kts | 304° |
| 2026-05-07 21:39 | 14.44335 | 99.51809 | 27552 ft | 500 kts | 303° |
| 2026-05-07 21:39 | 14.46099 | 99.48710 | 27793 ft | 502 kts | 299° |
| 2026-05-07 21:39 | 14.47713 | 99.45511 | 28044 ft | 504 kts | 297° |
| 2026-05-07 21:39 | 14.49269 | 99.42270 | 28297 ft | 505 kts | 297° |
| 2026-05-07 21:40 | 14.50824 | 99.39009 | 28523 ft | 507 kts | 297° |
| 2026-05-07 21:40 | 14.52401 | 99.35746 | 28754 ft | 509 kts | 298° |
| 2026-05-07 21:40 | 14.54003 | 99.32487 | 28984 ft | 510 kts | 298° |
| 2026-05-07 21:40 | 14.55629 | 99.29225 | 29198 ft | 511 kts | 298° |
| 2026-05-07 21:41 | 14.57270 | 99.25961 | 29421 ft | 512 kts | 298° |
| 2026-05-07 21:41 | 14.58921 | 99.22687 | 29609 ft | 514 kts | 298° |
| 2026-05-07 21:41 | 14.60548 | 99.19464 | 29833 ft | 514 kts | 298° |
| 2026-05-07 21:41 | 14.62197 | 99.16192 | 30096 ft | 513 kts | 298° |
| 2026-05-07 21:42 | 14.63837 | 99.12933 | 30378 ft | 511 kts | 298° |
| 2026-05-07 21:42 | 14.65471 | 99.09683 | 30651 ft | 509 kts | 298° |
| 2026-05-07 21:42 | 14.67102 | 99.06436 | 30895 ft | 508 kts | 298° |
| 2026-05-07 21:42 | 14.68726 | 99.03200 | 31136 ft | 507 kts | 298° |
| 2026-05-07 21:43 | 14.70349 | 98.99966 | 31385 ft | 506 kts | 298° |
| 2026-05-07 21:43 | 14.71966 | 98.96740 | 31645 ft | 505 kts | 298° |
| 2026-05-07 21:43 | 14.73586 | 98.93509 | 31804 ft | 506 kts | 298° |
| 2026-05-07 21:43 | 14.75211 | 98.90267 | 31837 ft | 507 kts | 298° |
| 2026-05-07 21:44 | 14.78438 | 98.83822 | 31881 ft | 504 kts | 298° |
| 2026-05-07 21:44 | 14.81110 | 98.78482 | 31899 ft | 503 kts | 298° |
| 2026-05-07 21:45 | 14.84321 | 98.72060 | 31898 ft | 502 kts | 298° |
| 2026-05-07 21:45 | 14.87525 | 98.65648 | 31898 ft | 502 kts | 298° |
| 2026-05-07 21:46 | 14.90726 | 98.59234 | 31893 ft | 502 kts | 298° |
| 2026-05-07 21:46 | 14.93935 | 98.52801 | 31880 ft | 503 kts | 298° |
| 2026-05-07 21:47 | 14.97141 | 98.46366 | 31890 ft | 503 kts | 298° |
| 2026-05-07 21:47 | 15.00349 | 98.39922 | 31880 ft | 504 kts | 298° |
| 2026-05-07 21:48 | 15.03556 | 98.33475 | 31882 ft | 504 kts | 298° |
| 2026-05-07 21:48 | 15.06763 | 98.27019 | 31862 ft | 505 kts | 298° |
| 2026-05-07 21:49 | 15.09978 | 98.20546 | 31876 ft | 506 kts | 298° |
| 2026-05-07 21:49 | 15.13154 | 98.14046 | 31872 ft | 506 kts | 297° |
| 2026-05-07 21:50 | 15.16308 | 98.07528 | 31849 ft | 507 kts | 297° |
| 2026-05-07 21:50 | 15.19465 | 98.01005 | 31855 ft | 507 kts | 297° |
| 2026-05-07 21:51 | 15.22631 | 97.94470 | 31865 ft | 508 kts | 297° |
| 2026-05-07 21:51 | 15.25801 | 97.87924 | 31843 ft | 508 kts | 297° |
| 2026-05-07 21:52 | 15.28971 | 97.81375 | 31842 ft | 509 kts | 297° |
| 2026-05-07 21:52 | 15.32141 | 97.74817 | 31857 ft | 509 kts | 297° |
| 2026-05-07 21:53 | 15.35309 | 97.68255 | 31840 ft | 509 kts | 297° |
| 2026-05-07 21:53 | 15.38474 | 97.61696 | 31839 ft | 509 kts | 297° |
| 2026-05-07 21:54 | 15.41639 | 97.55129 | 31851 ft | 509 kts | 297° |
| 2026-05-07 21:54 | 15.44809 | 97.48555 | 31837 ft | 510 kts | 297° |
| 2026-05-07 21:55 | 15.48094 | 97.42050 | 31833 ft | 510 kts | 298° |
| 2026-05-07 21:55 | 15.51442 | 97.35565 | 31849 ft | 510 kts | 298° |
| 2026-05-07 21:56 | 15.54777 | 97.29068 | 31838 ft | 510 kts | 298° |
| 2026-05-07 21:56 | 15.58099 | 97.22554 | 31836 ft | 511 kts | 298° |
| 2026-05-07 21:57 | 15.61411 | 97.16040 | 31847 ft | 511 kts | 298° |
| 2026-05-07 21:57 | 15.64730 | 97.09506 | 31832 ft | 511 kts | 298° |
| 2026-05-07 21:58 | 15.68038 | 97.02990 | 31830 ft | 510 kts | 298° |
| 2026-05-07 21:58 | 15.71344 | 96.96473 | 31828 ft | 510 kts | 298° |
| 2026-05-07 21:59 | 15.74648 | 96.89955 | 31832 ft | 510 kts | 298° |
| 2026-05-07 21:59 | 15.77947 | 96.83439 | 31834 ft | 510 kts | 298° |
| 2026-05-07 22:00 | 15.81245 | 96.76922 | 31827 ft | 510 kts | 298° |
| 2026-05-07 22:00 | 15.84537 | 96.70407 | 31827 ft | 510 kts | 298° |
| 2026-05-07 22:01 | 15.87832 | 96.63884 | 31834 ft | 510 kts | 298° |
| 2026-05-07 22:01 | 15.91119 | 96.57368 | 31828 ft | 510 kts | 298° |
| 2026-05-07 22:02 | 15.94409 | 96.50842 | 31823 ft | 510 kts | 297° |
| 2026-05-07 22:02 | 15.97699 | 96.44309 | 31824 ft | 510 kts | 297° |
| 2026-05-07 22:03 | 16.00985 | 96.37778 | 31839 ft | 510 kts | 297° |
| 2026-05-07 22:03 | 16.04271 | 96.31240 | 31831 ft | 510 kts | 297° |
| 2026-05-07 22:04 | 16.07553 | 96.24704 | 31830 ft | 510 kts | 297° |
| 2026-05-07 22:04 | 16.10832 | 96.18169 | 31840 ft | 509 kts | 297° |
| 2026-05-07 22:05 | 16.14105 | 96.11639 | 31829 ft | 509 kts | 297° |
| 2026-05-07 22:05 | 16.17374 | 96.05111 | 31828 ft | 508 kts | 297° |
| 2026-05-07 22:06 | 16.20630 | 95.98603 | 31826 ft | 506 kts | 297° |
| 2026-05-07 22:06 | 16.23875 | 95.92109 | 31826 ft | 505 kts | 297° |
| 2026-05-07 22:07 | 16.27113 | 95.85627 | 31825 ft | 504 kts | 297° |
| 2026-05-07 22:07 | 16.30345 | 95.79150 | 31829 ft | 504 kts | 297° |
| 2026-05-07 22:08 | 16.33570 | 95.72681 | 31829 ft | 503 kts | 297° |
| 2026-05-07 22:08 | 16.36789 | 95.66215 | 31824 ft | 503 kts | 296° |
| 2026-05-07 22:09 | 16.40024 | 95.59713 | 31827 ft | 503 kts | 296° |
| 2026-05-07 22:09 | 16.43238 | 95.53245 | 31823 ft | 503 kts | 296° |
| 2026-05-07 22:10 | 16.46453 | 95.46771 | 31830 ft | 503 kts | 296° |
| 2026-05-07 22:10 | 16.49663 | 95.40300 | 31827 ft | 503 kts | 296° |
| 2026-05-07 22:11 | 16.52873 | 95.33824 | 31830 ft | 503 kts | 296° |
| 2026-05-07 22:11 | 16.56080 | 95.27346 | 31826 ft | 502 kts | 296° |
| 2026-05-07 22:12 | 16.59280 | 95.20877 | 31824 ft | 502 kts | 296° |
| 2026-05-07 22:12 | 16.62475 | 95.14412 | 31821 ft | 501 kts | 296° |
| 2026-05-07 22:13 | 16.65664 | 95.07954 | 31822 ft | 500 kts | 296° |
| 2026-05-07 22:13 | 16.68850 | 95.01493 | 31820 ft | 500 kts | 296° |
| 2026-05-07 22:14 | 16.72025 | 94.95049 | 31828 ft | 499 kts | 296° |
| 2026-05-07 22:14 | 16.75193 | 94.88612 | 31826 ft | 499 kts | 296° |
| 2026-05-07 22:15 | 16.78360 | 94.82173 | 31831 ft | 498 kts | 295° |
| 2026-05-07 22:15 | 16.81763 | 94.75865 | 31824 ft | 499 kts | 303° |
| 2026-05-07 22:16 | 16.86112 | 94.70199 | 31828 ft | 500 kts | 308° |
| 2026-05-07 22:16 | 16.90536 | 94.64595 | 31826 ft | 500 kts | 307° |
| 2026-05-07 22:17 | 16.94921 | 94.58957 | 31827 ft | 500 kts | 307° |
| 2026-05-07 22:17 | 16.99268 | 94.53340 | 31830 ft | 500 kts | 307° |
| 2026-05-07 22:18 | 17.05829 | 94.44857 | 31828 ft | 500 kts | 307° |
| 2026-05-07 22:19 | 17.10205 | 94.39198 | 31831 ft | 500 kts | 307° |
| 2026-05-07 22:19 | 17.14576 | 94.33541 | 31831 ft | 500 kts | 307° |
| 2026-05-07 22:20 | 17.18231 | 94.28806 | 31828 ft | 500 kts | 307° |
| 2026-05-07 22:20 | 17.22600 | 94.23143 | 31832 ft | 500 kts | 307° |
| 2026-05-07 22:21 | 17.26959 | 94.17488 | 31829 ft | 500 kts | 307° |
| 2026-05-07 22:21 | 17.31319 | 94.11826 | 31833 ft | 499 kts | 307° |
| 2026-05-07 22:22 | 17.35676 | 94.06164 | 31830 ft | 499 kts | 306° |
| 2026-05-07 22:22 | 17.40033 | 94.00497 | 31833 ft | 500 kts | 306° |
| 2026-05-07 22:23 | 17.44390 | 93.94825 | 31833 ft | 500 kts | 306° |
| 2026-05-07 22:23 | 17.48745 | 93.89152 | 31835 ft | 500 kts | 306° |
| 2026-05-07 22:24 | 17.53101 | 93.83472 | 31832 ft | 500 kts | 306° |
| 2026-05-07 22:24 | 17.57449 | 93.77797 | 31840 ft | 499 kts | 306° |
| 2026-05-07 22:25 | 17.61795 | 93.72121 | 31832 ft | 499 kts | 306° |
| 2026-05-07 22:25 | 17.66139 | 93.66442 | 31830 ft | 499 kts | 306° |
| 2026-05-07 22:26 | 17.70474 | 93.60770 | 31830 ft | 498 kts | 306° |
| 2026-05-07 22:26 | 17.74809 | 93.55094 | 31831 ft | 498 kts | 306° |
| 2026-05-07 22:27 | 17.79135 | 93.49423 | 31830 ft | 498 kts | 306° |
| 2026-05-07 22:27 | 17.83457 | 93.43754 | 31830 ft | 497 kts | 306° |
| 2026-05-07 22:28 | 17.87778 | 93.38081 | 31830 ft | 497 kts | 306° |
| 2026-05-07 22:28 | 17.92096 | 93.32407 | 31833 ft | 497 kts | 306° |
| 2026-05-07 22:29 | 17.96412 | 93.26731 | 31834 ft | 497 kts | 306° |
| 2026-05-07 22:29 | 18.00723 | 93.21055 | 31832 ft | 497 kts | 306° |
| 2026-05-07 22:30 | 18.05029 | 93.15382 | 31830 ft | 497 kts | 306° |
| 2026-05-07 22:30 | 18.09336 | 93.09703 | 31830 ft | 496 kts | 306° |
| 2026-05-07 22:31 | 18.13637 | 93.04027 | 31829 ft | 496 kts | 306° |
| 2026-05-07 22:31 | 18.17932 | 92.98354 | 31832 ft | 496 kts | 306° |
| 2026-05-07 22:32 | 18.22221 | 92.92683 | 31833 ft | 495 kts | 306° |
| 2026-05-07 22:32 | 18.26508 | 92.87009 | 31828 ft | 495 kts | 306° |
| 2026-05-07 22:33 | 18.30786 | 92.81343 | 31831 ft | 495 kts | 306° |
| 2026-05-07 22:33 | 18.35066 | 92.75669 | 31831 ft | 495 kts | 306° |
| 2026-05-07 22:34 | 18.39344 | 92.69994 | 31829 ft | 495 kts | 305° |
| 2026-05-07 22:34 | 18.43624 | 92.64309 | 31830 ft | 495 kts | 305° |
| 2026-05-07 22:35 | 18.47899 | 92.58627 | 31833 ft | 495 kts | 305° |
| 2026-05-07 22:35 | 18.52173 | 92.52940 | 31830 ft | 495 kts | 305° |
| 2026-05-07 22:36 | 18.56448 | 92.47248 | 31830 ft | 495 kts | 305° |
| 2026-05-07 22:36 | 18.60724 | 92.41549 | 31832 ft | 496 kts | 305° |
| 2026-05-07 22:37 | 18.64998 | 92.35847 | 31835 ft | 496 kts | 305° |
| 2026-05-07 22:37 | 18.69275 | 92.30136 | 31833 ft | 496 kts | 305° |
| 2026-05-07 22:38 | 18.73554 | 92.24418 | 31833 ft | 496 kts | 305° |
| 2026-05-07 22:38 | 18.77829 | 92.18699 | 31838 ft | 496 kts | 304° |
| 2026-05-07 22:39 | 18.82104 | 92.12975 | 31837 ft | 496 kts | 304° |
| 2026-05-07 22:39 | 18.86376 | 92.07249 | 31834 ft | 496 kts | 304° |
| 2026-05-07 22:40 | 18.90645 | 92.01522 | 31835 ft | 496 kts | 304° |
| 2026-05-07 22:40 | 18.94897 | 91.95781 | 31836 ft | 495 kts | 304° |
| 2026-05-07 22:41 | 18.99107 | 91.90016 | 31839 ft | 495 kts | 304° |
| 2026-05-07 22:41 | 19.03306 | 91.84252 | 31839 ft | 494 kts | 304° |
| 2026-05-07 22:42 | 19.07506 | 91.78492 | 31839 ft | 494 kts | 303° |
| 2026-05-07 22:42 | 19.11697 | 91.72744 | 31840 ft | 493 kts | 303° |
| 2026-05-07 22:43 | 19.15885 | 91.66997 | 31838 ft | 493 kts | 303° |
| 2026-05-07 22:43 | 19.20064 | 91.61256 | 31839 ft | 492 kts | 303° |
| 2026-05-07 22:44 | 19.24239 | 91.55514 | 31839 ft | 492 kts | 303° |
| 2026-05-07 22:44 | 19.28412 | 91.49770 | 31842 ft | 492 kts | 303° |
| 2026-05-07 22:45 | 19.32578 | 91.44030 | 31844 ft | 492 kts | 303° |
| 2026-05-07 22:45 | 19.36747 | 91.38282 | 31846 ft | 492 kts | 303° |
| 2026-05-07 22:46 | 19.40916 | 91.32527 | 31845 ft | 492 kts | 303° |
| 2026-05-07 22:46 | 19.45079 | 91.26775 | 31843 ft | 492 kts | 303° |
| 2026-05-07 22:47 | 19.49237 | 91.21024 | 31846 ft | 491 kts | 303° |
| 2026-05-07 22:47 | 19.53396 | 91.15267 | 31844 ft | 491 kts | 303° |
| 2026-05-07 22:48 | 19.57548 | 91.09514 | 31845 ft | 491 kts | 303° |
| 2026-05-07 22:48 | 19.61698 | 91.03758 | 31845 ft | 491 kts | 303° |
| 2026-05-07 22:49 | 19.65851 | 90.97993 | 31844 ft | 491 kts | 303° |
| 2026-05-07 22:49 | 19.69996 | 90.92233 | 31843 ft | 491 kts | 303° |
| 2026-05-07 22:50 | 19.74139 | 90.86471 | 31845 ft | 491 kts | 303° |
| 2026-05-07 22:50 | 19.78282 | 90.80702 | 31848 ft | 491 kts | 303° |
| 2026-05-07 22:51 | 19.82421 | 90.74935 | 31846 ft | 491 kts | 303° |
| 2026-05-07 22:51 | 19.86558 | 90.69164 | 31851 ft | 491 kts | 303° |
| 2026-05-07 22:52 | 19.90692 | 90.63392 | 31849 ft | 491 kts | 302° |
| 2026-05-07 22:52 | 19.94820 | 90.57621 | 31848 ft | 491 kts | 302° |
| 2026-05-07 22:53 | 19.98975 | 90.51808 | 31849 ft | 490 kts | 302° |
| 2026-05-07 22:53 | 20.02407 | 90.47003 | 31846 ft | 490 kts | 302° |
| 2026-05-07 22:54 | 20.07202 | 90.40282 | 31854 ft | 490 kts | 302° |
| 2026-05-07 22:54 | 20.10658 | 90.35433 | 31854 ft | 490 kts | 302° |
| 2026-05-07 22:55 | 20.14776 | 90.29650 | 31858 ft | 490 kts | 302° |
| 2026-05-07 22:55 | 20.19555 | 90.22931 | 31855 ft | 490 kts | 302° |
| 2026-05-07 22:56 | 20.22996 | 90.18090 | 31842 ft | 490 kts | 302° |
| 2026-05-07 22:56 | 20.27104 | 90.12303 | 31861 ft | 489 kts | 302° |
| 2026-05-07 22:57 | 20.31207 | 90.06519 | 31863 ft | 489 kts | 302° |
| 2026-05-07 22:57 | 20.35310 | 90.00729 | 31848 ft | 489 kts | 302° |
| 2026-05-07 22:58 | 20.39380 | 89.94979 | 31853 ft | 488 kts | 302° |
| 2026-05-07 22:58 | 20.43468 | 89.89198 | 31853 ft | 488 kts | 302° |
| 2026-05-07 22:59 | 20.47552 | 89.83417 | 31857 ft | 488 kts | 302° |
| 2026-05-07 22:59 | 20.51629 | 89.77640 | 31858 ft | 487 kts | 302° |
| 2026-05-07 23:00 | 20.55729 | 89.71826 | 31859 ft | 487 kts | 302° |
| 2026-05-07 23:00 | 20.59793 | 89.66055 | 31861 ft | 486 kts | 302° |
| 2026-05-07 23:01 | 20.63857 | 89.60279 | 31862 ft | 486 kts | 302° |
| 2026-05-07 23:01 | 20.67913 | 89.54509 | 31863 ft | 486 kts | 302° |
| 2026-05-07 23:02 | 20.71960 | 89.48744 | 31863 ft | 485 kts | 301° |
| 2026-05-07 23:02 | 20.76011 | 89.42970 | 31865 ft | 485 kts | 301° |
| 2026-05-07 23:03 | 20.80025 | 89.37241 | 31864 ft | 484 kts | 301° |
| 2026-05-07 23:03 | 20.84085 | 89.31440 | 31865 ft | 484 kts | 301° |
| 2026-05-07 23:04 | 20.88117 | 89.25676 | 31868 ft | 483 kts | 302° |
| 2026-05-07 23:04 | 20.92933 | 89.20596 | 31866 ft | 496 kts | 319° |
| 2026-05-07 23:05 | 20.99100 | 89.17114 | 31867 ft | 508 kts | 334° |
| 2026-05-07 23:05 | 21.05722 | 89.14426 | 31869 ft | 509 kts | 333° |
| 2026-05-07 23:06 | 21.12338 | 89.11670 | 31869 ft | 511 kts | 333° |
| 2026-05-07 23:06 | 21.18951 | 89.08863 | 31867 ft | 512 kts | 332° |
| 2026-05-07 23:07 | 21.25570 | 89.06037 | 31861 ft | 512 kts | 332° |
| 2026-05-07 23:07 | 21.32185 | 89.03210 | 31857 ft | 511 kts | 332° |
| 2026-05-07 23:08 | 21.38789 | 89.00389 | 31858 ft | 510 kts | 332° |
| 2026-05-07 23:08 | 21.45380 | 88.97572 | 31860 ft | 509 kts | 332° |
| 2026-05-07 23:09 | 21.51954 | 88.94758 | 31859 ft | 508 kts | 332° |
| 2026-05-07 23:09 | 21.58527 | 88.91942 | 31856 ft | 507 kts | 332° |
| 2026-05-07 23:10 | 21.65084 | 88.89131 | 31859 ft | 507 kts | 332° |
| 2026-05-07 23:10 | 21.71640 | 88.86316 | 31861 ft | 507 kts | 332° |
| 2026-05-07 23:11 | 21.78186 | 88.83504 | 31856 ft | 507 kts | 332° |
| 2026-05-07 23:11 | 21.84729 | 88.80689 | 31852 ft | 507 kts | 332° |
| 2026-05-07 23:12 | 21.91281 | 88.77868 | 31858 ft | 507 kts | 332° |
| 2026-05-07 23:12 | 21.97829 | 88.75047 | 31862 ft | 507 kts | 332° |
| 2026-05-07 23:13 | 22.04386 | 88.72218 | 31862 ft | 507 kts | 332° |
| 2026-05-07 23:13 | 22.10943 | 88.69387 | 31865 ft | 507 kts | 331° |
| 2026-05-07 23:14 | 22.17503 | 88.66552 | 31863 ft | 508 kts | 331° |
| 2026-05-07 23:14 | 22.24063 | 88.63714 | 31865 ft | 508 kts | 331° |
| 2026-05-07 23:15 | 22.30623 | 88.60872 | 31864 ft | 508 kts | 331° |
| 2026-05-07 23:15 | 22.37176 | 88.58031 | 31871 ft | 508 kts | 331° |
| 2026-05-07 23:16 | 22.43733 | 88.55185 | 31874 ft | 508 kts | 331° |
| 2026-05-07 23:16 | 22.50287 | 88.52338 | 31881 ft | 508 kts | 331° |
| 2026-05-07 23:17 | 22.56806 | 88.49502 | 31886 ft | 508 kts | 331° |
| 2026-05-07 23:17 | 22.63329 | 88.46618 | 31872 ft | 501 kts | 327° |
| 2026-05-07 23:17 | 22.66272 | 88.44701 | 31883 ft | 488 kts | 314° |
| 2026-05-07 23:18 | 22.68782 | 88.42222 | 31896 ft | 478 kts | 305° |
| 2026-05-07 23:18 | 22.72487 | 88.36428 | 31900 ft | 464 kts | 294° |
| 2026-05-07 23:19 | 22.75846 | 88.30398 | 31890 ft | 470 kts | 295° |
| 2026-05-07 23:19 | 22.79307 | 88.24350 | 31886 ft | 474 kts | 295° |
| 2026-05-07 23:20 | 22.82796 | 88.18270 | 31879 ft | 475 kts | 295° |
| 2026-05-07 23:20 | 22.86277 | 88.12186 | 31875 ft | 474 kts | 295° |
| 2026-05-07 23:21 | 22.89725 | 88.06150 | 31876 ft | 472 kts | 295° |
| 2026-05-07 23:21 | 22.93173 | 88.00099 | 31876 ft | 470 kts | 295° |
| 2026-05-07 23:22 | 22.96625 | 87.94034 | 31882 ft | 468 kts | 295° |
| 2026-05-07 23:22 | 23.00018 | 87.88064 | 31882 ft | 467 kts | 295° |
| 2026-05-07 23:23 | 23.03429 | 87.82057 | 31883 ft | 467 kts | 295° |
| 2026-05-07 23:23 | 23.06834 | 87.76052 | 31884 ft | 467 kts | 295° |
| 2026-05-07 23:24 | 23.10242 | 87.70037 | 31885 ft | 467 kts | 295° |
| 2026-05-07 23:24 | 23.13640 | 87.64031 | 31892 ft | 467 kts | 295° |
| 2026-05-07 23:25 | 23.17046 | 87.58004 | 31892 ft | 468 kts | 295° |
| 2026-05-07 23:25 | 23.20448 | 87.51978 | 31896 ft | 468 kts | 295° |
| 2026-05-07 23:26 | 23.23849 | 87.45947 | 31899 ft | 468 kts | 295° |
| 2026-05-07 23:26 | 23.27247 | 87.39914 | 31900 ft | 467 kts | 295° |
| 2026-05-07 23:27 | 23.32331 | 87.30872 | 31900 ft | 467 kts | 295° |
| 2026-05-07 23:27 | 23.35718 | 87.24840 | 31908 ft | 467 kts | 294° |
| 2026-05-07 23:28 | 23.39097 | 87.18814 | 31905 ft | 467 kts | 294° |
| 2026-05-07 23:28 | 23.42476 | 87.12783 | 31912 ft | 466 kts | 294° |
| 2026-05-07 23:29 | 23.45848 | 87.06753 | 31910 ft | 466 kts | 294° |
| 2026-05-07 23:29 | 23.49220 | 87.00725 | 31914 ft | 466 kts | 294° |
| 2026-05-07 23:30 | 23.52047 | 86.95685 | 31917 ft | 465 kts | 294° |
| 2026-05-07 23:30 | 23.55420 | 86.89670 | 31921 ft | 465 kts | 294° |
| 2026-05-07 23:31 | 23.58783 | 86.83660 | 31919 ft | 464 kts | 294° |
| 2026-05-07 23:31 | 23.62140 | 86.77656 | 31924 ft | 464 kts | 294° |
| 2026-05-07 23:32 | 23.65495 | 86.71640 | 31922 ft | 464 kts | 294° |
| 2026-05-07 23:32 | 23.68852 | 86.65618 | 31931 ft | 464 kts | 294° |
| 2026-05-07 23:33 | 23.72204 | 86.59599 | 31927 ft | 464 kts | 294° |
| 2026-05-07 23:33 | 23.75552 | 86.53577 | 31933 ft | 464 kts | 294° |
| 2026-05-07 23:34 | 23.78897 | 86.47554 | 31927 ft | 463 kts | 294° |
| 2026-05-07 23:34 | 23.82305 | 86.41583 | 31929 ft | 466 kts | 297° |
| 2026-05-07 23:35 | 23.86002 | 86.35762 | 31950 ft | 466 kts | 297° |
| 2026-05-07 23:35 | 23.89702 | 86.29948 | 31956 ft | 466 kts | 297° |
| 2026-05-07 23:36 | 23.93391 | 86.24119 | 31945 ft | 466 kts | 297° |
| 2026-05-07 23:36 | 23.97057 | 86.18304 | 31947 ft | 464 kts | 297° |
| 2026-05-07 23:37 | 24.00714 | 86.12501 | 31957 ft | 463 kts | 297° |
| 2026-05-07 23:37 | 24.04362 | 86.06694 | 31960 ft | 463 kts | 297° |
| 2026-05-07 23:38 | 24.08015 | 86.00877 | 31955 ft | 464 kts | 297° |
| 2026-05-07 23:38 | 24.11670 | 85.95052 | 31952 ft | 464 kts | 297° |
| 2026-05-07 23:39 | 24.15327 | 85.89217 | 31956 ft | 464 kts | 297° |
| 2026-05-07 23:39 | 24.18981 | 85.83380 | 31947 ft | 464 kts | 297° |
| 2026-05-07 23:40 | 24.22630 | 85.77543 | 31950 ft | 464 kts | 297° |
| 2026-05-07 23:40 | 24.26275 | 85.71706 | 31944 ft | 464 kts | 297° |
| 2026-05-07 23:41 | 24.29924 | 85.65857 | 31943 ft | 464 kts | 297° |
| 2026-05-07 23:41 | 24.33563 | 85.60015 | 31940 ft | 464 kts | 297° |
| 2026-05-07 23:42 | 24.37202 | 85.54167 | 31937 ft | 464 kts | 297° |
| 2026-05-07 23:42 | 24.40840 | 85.48313 | 31925 ft | 464 kts | 297° |
| 2026-05-07 23:43 | 24.44475 | 85.42457 | 31927 ft | 464 kts | 297° |
| 2026-05-07 23:43 | 24.48113 | 85.36590 | 31920 ft | 465 kts | 297° |
| 2026-05-07 23:44 | 24.51744 | 85.30725 | 31922 ft | 464 kts | 297° |
| 2026-05-07 23:44 | 24.55374 | 85.24857 | 31909 ft | 465 kts | 297° |
| 2026-05-07 23:45 | 24.59004 | 85.18981 | 31913 ft | 464 kts | 297° |
| 2026-05-07 23:45 | 24.62631 | 85.13102 | 31899 ft | 465 kts | 297° |
| 2026-05-07 23:46 | 24.66255 | 85.07220 | 31887 ft | 465 kts | 297° |
| 2026-05-07 23:46 | 24.69876 | 85.01337 | 31890 ft | 465 kts | 297° |
| 2026-05-07 23:47 | 24.73418 | 84.95410 | 31882 ft | 461 kts | 294° |
| 2026-05-07 23:47 | 24.76093 | 84.89073 | 31888 ft | 453 kts | 284° |
| 2026-05-07 23:48 | 24.78294 | 84.82569 | 31890 ft | 454 kts | 286° |
| 2026-05-07 23:48 | 24.80565 | 84.76073 | 31890 ft | 455 kts | 286° |
| 2026-05-07 23:49 | 24.82844 | 84.69570 | 31886 ft | 456 kts | 286° |
| 2026-05-07 23:49 | 24.85118 | 84.63056 | 31890 ft | 456 kts | 286° |
| 2026-05-07 23:50 | 24.87385 | 84.56541 | 31887 ft | 456 kts | 286° |
| 2026-05-07 23:50 | 24.89665 | 84.49976 | 31884 ft | 456 kts | 286° |
| 2026-05-07 23:51 | 24.91929 | 84.43445 | 31884 ft | 456 kts | 286° |
| 2026-05-07 23:51 | 24.94186 | 84.36924 | 31885 ft | 455 kts | 286° |
| 2026-05-07 23:52 | 24.96440 | 84.30403 | 31880 ft | 455 kts | 286° |
| 2026-05-07 23:52 | 24.98689 | 84.23883 | 31881 ft | 455 kts | 286° |
| 2026-05-07 23:53 | 25.00938 | 84.17355 | 31881 ft | 455 kts | 286° |
| 2026-05-07 23:53 | 25.03182 | 84.10831 | 31878 ft | 455 kts | 286° |
| 2026-05-07 23:54 | 25.05423 | 84.04303 | 31877 ft | 455 kts | 287° |
| 2026-05-07 23:54 | 25.07660 | 83.97775 | 31875 ft | 455 kts | 287° |
| 2026-05-07 23:55 | 25.09898 | 83.91236 | 31875 ft | 455 kts | 287° |
| 2026-05-07 23:55 | 25.12130 | 83.84702 | 31876 ft | 455 kts | 287° |
| 2026-05-07 23:56 | 25.14348 | 83.78198 | 31876 ft | 455 kts | 287° |
| 2026-05-07 23:56 | 25.16577 | 83.71652 | 31871 ft | 456 kts | 287° |
| 2026-05-07 23:57 | 25.18803 | 83.65103 | 31873 ft | 456 kts | 287° |
| 2026-05-07 23:57 | 25.21031 | 83.58540 | 31870 ft | 456 kts | 287° |
| 2026-05-07 23:58 | 25.23255 | 83.51977 | 31873 ft | 456 kts | 287° |
| 2026-05-07 23:58 | 25.25474 | 83.45415 | 31871 ft | 456 kts | 287° |
| 2026-05-07 23:59 | 25.27691 | 83.38850 | 31866 ft | 456 kts | 287° |
| 2026-05-07 23:59 | 25.29904 | 83.32285 | 31866 ft | 456 kts | 287° |
| 2026-05-08 00:00 | 25.32115 | 83.25714 | 31868 ft | 456 kts | 287° |
| 2026-05-08 00:00 | 25.34323 | 83.19144 | 31866 ft | 456 kts | 287° |
| 2026-05-08 00:01 | 25.36527 | 83.12574 | 31870 ft | 455 kts | 287° |
| 2026-05-08 00:01 | 25.38725 | 83.06009 | 31866 ft | 455 kts | 287° |
| 2026-05-08 00:02 | 25.40918 | 82.99446 | 31865 ft | 455 kts | 287° |
| 2026-05-08 00:02 | 25.43110 | 82.92878 | 31856 ft | 455 kts | 287° |
| 2026-05-08 00:03 | 25.45621 | 82.86446 | 31858 ft | 458 kts | 295° |
| 2026-05-08 00:03 | 25.49085 | 82.80439 | 31862 ft | 463 kts | 303° |
| 2026-05-08 00:04 | 25.52982 | 82.74774 | 31853 ft | 463 kts | 302° |
| 2026-05-08 00:04 | 25.56850 | 82.69083 | 31860 ft | 462 kts | 302° |
| 2026-05-08 00:05 | 25.60052 | 82.64346 | 31857 ft | 462 kts | 302° |
| 2026-05-08 00:05 | 25.63899 | 82.58639 | 31862 ft | 462 kts | 302° |
| 2026-05-08 00:06 | 25.67745 | 82.52928 | 31862 ft | 462 kts | 302° |
| 2026-05-08 00:06 | 25.71591 | 82.47212 | 31862 ft | 462 kts | 302° |
| 2026-05-08 00:07 | 25.75434 | 82.41492 | 31860 ft | 462 kts | 302° |
| 2026-05-08 00:07 | 25.79276 | 82.35767 | 31860 ft | 463 kts | 302° |
| 2026-05-08 00:08 | 25.83126 | 82.30025 | 31862 ft | 463 kts | 302° |
| 2026-05-08 00:08 | 25.86963 | 82.24294 | 31860 ft | 463 kts | 303° |
| 2026-05-08 00:09 | 25.90803 | 82.18550 | 31863 ft | 463 kts | 303° |
| 2026-05-08 00:09 | 25.94643 | 82.12800 | 31860 ft | 463 kts | 303° |
| 2026-05-08 00:10 | 25.98482 | 82.07045 | 31863 ft | 463 kts | 303° |
| 2026-05-08 00:10 | 26.02321 | 82.01282 | 31945 ft | 465 kts | 303° |
| 2026-05-08 00:11 | 26.04246 | 81.98390 | 32227 ft | 464 kts | 303° |
| 2026-05-08 00:11 | 26.06163 | 81.95509 | 32564 ft | 462 kts | 303° |
| 2026-05-08 00:11 | 26.08071 | 81.92640 | 32892 ft | 460 kts | 303° |
| 2026-05-08 00:11 | 26.09971 | 81.89781 | 33207 ft | 459 kts | 303° |
| 2026-05-08 00:12 | 26.11865 | 81.86928 | 33470 ft | 459 kts | 303° |
| 2026-05-08 00:12 | 26.13760 | 81.84071 | 33709 ft | 458 kts | 303° |
| 2026-05-08 00:12 | 26.17548 | 81.78354 | 33841 ft | 459 kts | 303° |
| 2026-05-08 00:13 | 26.21335 | 81.72635 | 33858 ft | 458 kts | 303° |
| 2026-05-08 00:13 | 26.25107 | 81.66930 | 33868 ft | 456 kts | 303° |
| 2026-05-08 00:14 | 26.28867 | 81.61237 | 33871 ft | 455 kts | 303° |
| 2026-05-08 00:14 | 26.32612 | 81.55559 | 33871 ft | 455 kts | 303° |
| 2026-05-08 00:15 | 26.36355 | 81.49876 | 33875 ft | 455 kts | 303° |
| 2026-05-08 00:15 | 26.40097 | 81.44188 | 33875 ft | 455 kts | 303° |
| 2026-05-08 00:16 | 26.43842 | 81.38488 | 33874 ft | 456 kts | 303° |
| 2026-05-08 00:16 | 26.47587 | 81.32783 | 33876 ft | 456 kts | 303° |
| 2026-05-08 00:17 | 26.51336 | 81.27062 | 33878 ft | 456 kts | 303° |
| 2026-05-08 00:17 | 26.55078 | 81.21346 | 33875 ft | 456 kts | 303° |
| 2026-05-08 00:18 | 26.58817 | 81.15627 | 33873 ft | 456 kts | 303° |
| 2026-05-08 00:18 | 26.62557 | 81.09899 | 33877 ft | 456 kts | 303° |
| 2026-05-08 00:19 | 26.66292 | 81.04172 | 33879 ft | 455 kts | 303° |
| 2026-05-08 00:19 | 26.70025 | 80.98439 | 33884 ft | 455 kts | 303° |
| 2026-05-08 00:20 | 26.73749 | 80.92713 | 33886 ft | 455 kts | 303° |
| 2026-05-08 00:20 | 26.77581 | 80.87058 | 33882 ft | 456 kts | 307° |
| 2026-05-08 00:21 | 26.81729 | 80.81665 | 33889 ft | 457 kts | 308° |
| 2026-05-08 00:21 | 26.85901 | 80.76295 | 33882 ft | 457 kts | 308° |
| 2026-05-08 00:22 | 26.90049 | 80.70898 | 33879 ft | 457 kts | 308° |
| 2026-05-08 00:22 | 26.94180 | 80.65483 | 33880 ft | 457 kts | 308° |
| 2026-05-08 00:23 | 26.98318 | 80.60046 | 33871 ft | 458 kts | 308° |
| 2026-05-08 00:23 | 27.02449 | 80.54611 | 33873 ft | 458 kts | 308° |
| 2026-05-08 00:24 | 27.06582 | 80.49168 | 33869 ft | 458 kts | 308° |
| 2026-05-08 00:24 | 27.10710 | 80.43727 | 33870 ft | 458 kts | 308° |
| 2026-05-08 00:25 | 27.14835 | 80.38283 | 33870 ft | 457 kts | 308° |
| 2026-05-08 00:25 | 27.18953 | 80.32840 | 33865 ft | 457 kts | 308° |
| 2026-05-08 00:26 | 27.23064 | 80.27399 | 33865 ft | 457 kts | 308° |
| 2026-05-08 00:26 | 27.27173 | 80.21955 | 33868 ft | 456 kts | 308° |
| 2026-05-08 00:27 | 27.31275 | 80.16513 | 33865 ft | 456 kts | 308° |
| 2026-05-08 00:27 | 27.35375 | 80.11068 | 33868 ft | 456 kts | 308° |
| 2026-05-08 00:28 | 27.39471 | 80.05619 | 33867 ft | 456 kts | 308° |
| 2026-05-08 00:28 | 27.43563 | 80.00171 | 33869 ft | 455 kts | 308° |
| 2026-05-08 00:29 | 27.47650 | 79.94721 | 33865 ft | 455 kts | 308° |
| 2026-05-08 00:29 | 27.51733 | 79.89270 | 33863 ft | 455 kts | 308° |
| 2026-05-08 00:30 | 27.55813 | 79.83816 | 33863 ft | 455 kts | 308° |
| 2026-05-08 00:30 | 27.59894 | 79.78353 | 33864 ft | 455 kts | 308° |
| 2026-05-08 00:31 | 27.63966 | 79.72896 | 33864 ft | 455 kts | 308° |
| 2026-05-08 00:31 | 27.67929 | 79.67336 | 33857 ft | 454 kts | 303° |
| 2026-05-08 00:32 | 27.71063 | 79.61181 | 33865 ft | 452 kts | 294° |
| 2026-05-08 00:32 | 27.73466 | 79.54623 | 33868 ft | 452 kts | 292° |
| 2026-05-08 00:33 | 27.75860 | 79.48051 | 33858 ft | 453 kts | 292° |
| 2026-05-08 00:33 | 27.78268 | 79.41479 | 33856 ft | 453 kts | 292° |
| 2026-05-08 00:34 | 27.80674 | 79.34912 | 33856 ft | 453 kts | 292° |
| 2026-05-08 00:34 | 27.83081 | 79.28331 | 33855 ft | 453 kts | 292° |
| 2026-05-08 00:35 | 27.85483 | 79.21752 | 33855 ft | 453 kts | 292° |
| 2026-05-08 00:35 | 27.87882 | 79.15171 | 33855 ft | 452 kts | 292° |
| 2026-05-08 00:36 | 27.90272 | 79.08600 | 33852 ft | 452 kts | 292° |
| 2026-05-08 00:36 | 27.92659 | 79.02025 | 33853 ft | 452 kts | 292° |
| 2026-05-08 00:37 | 27.95041 | 78.95455 | 33847 ft | 452 kts | 292° |
| 2026-05-08 00:38 | 27.98607 | 78.85596 | 33848 ft | 451 kts | 292° |
| 2026-05-08 00:38 | 28.00979 | 78.79024 | 33849 ft | 451 kts | 292° |
| 2026-05-08 00:39 | 28.03347 | 78.72450 | 33848 ft | 451 kts | 292° |
| 2026-05-08 00:39 | 28.05713 | 78.65871 | 33855 ft | 451 kts | 292° |
| 2026-05-08 00:40 | 28.08075 | 78.59292 | 33855 ft | 451 kts | 292° |
| 2026-05-08 00:40 | 28.10034 | 78.53827 | 33853 ft | 451 kts | 292° |
| 2026-05-08 00:41 | 28.12390 | 78.47242 | 33859 ft | 451 kts | 292° |
| 2026-05-08 00:41 | 28.14741 | 78.40659 | 33860 ft | 451 kts | 292° |
| 2026-05-08 00:42 | 28.17091 | 78.34069 | 33862 ft | 451 kts | 292° |
| 2026-05-08 00:42 | 28.19440 | 78.27470 | 33865 ft | 451 kts | 292° |
| 2026-05-08 00:43 | 28.21784 | 78.20872 | 33860 ft | 451 kts | 292° |
| 2026-05-08 00:43 | 28.24140 | 78.14229 | 33868 ft | 451 kts | 292° |
| 2026-05-08 00:44 | 28.26477 | 78.07626 | 33870 ft | 451 kts | 292° |
| 2026-05-08 00:44 | 28.28815 | 78.01011 | 33871 ft | 451 kts | 292° |
| 2026-05-08 00:45 | 28.31147 | 77.94399 | 33870 ft | 451 kts | 292° |
| 2026-05-08 00:45 | 28.33472 | 77.87794 | 33874 ft | 451 kts | 292° |
| 2026-05-08 00:46 | 28.35795 | 77.81183 | 33875 ft | 451 kts | 292° |
| 2026-05-08 00:46 | 28.38117 | 77.74567 | 33878 ft | 451 kts | 292° |
| 2026-05-08 00:47 | 28.40290 | 77.67892 | 33875 ft | 451 kts | 289° |
| 2026-05-08 00:47 | 28.42044 | 77.61621 | 33879 ft | 451 kts | 289° |
| 2026-05-08 00:48 | 28.43954 | 77.54831 | 33880 ft | 451 kts | 289° |
| 2026-05-08 00:48 | 28.45870 | 77.48041 | 33883 ft | 451 kts | 289° |
| 2026-05-08 00:49 | 28.47783 | 77.41250 | 33884 ft | 451 kts | 289° |
| 2026-05-08 00:49 | 28.49695 | 77.34452 | 33883 ft | 451 kts | 289° |
| 2026-05-08 00:50 | 28.51601 | 77.27656 | 33887 ft | 451 kts | 289° |
| 2026-05-08 00:50 | 28.53506 | 77.20846 | 33885 ft | 451 kts | 289° |
| 2026-05-08 00:51 | 28.55408 | 77.14038 | 33883 ft | 452 kts | 289° |
| 2026-05-08 00:51 | 28.57135 | 77.07176 | 33880 ft | 453 kts | 282° |
| 2026-05-08 00:52 | 28.58230 | 77.00111 | 33883 ft | 453 kts | 282° |
| 2026-05-08 00:52 | 28.59381 | 76.93059 | 33886 ft | 453 kts | 282° |
| 2026-05-08 00:53 | 28.60542 | 76.86012 | 33883 ft | 453 kts | 282° |
| 2026-05-08 00:53 | 28.61695 | 76.78959 | 33880 ft | 453 kts | 282° |
| 2026-05-08 00:54 | 28.62841 | 76.71911 | 33881 ft | 453 kts | 282° |
| 2026-05-08 00:54 | 28.63984 | 76.64861 | 33880 ft | 453 kts | 282° |
| 2026-05-08 00:55 | 28.65078 | 76.57800 | 33876 ft | 453 kts | 281° |
| 2026-05-08 00:55 | 28.66092 | 76.50720 | 33868 ft | 453 kts | 281° |
| 2026-05-08 00:56 | 28.67102 | 76.43652 | 33870 ft | 453 kts | 281° |
| 2026-05-08 00:56 | 28.68120 | 76.36573 | 33865 ft | 452 kts | 281° |
| 2026-05-08 00:57 | 28.69137 | 76.29506 | 33864 ft | 452 kts | 281° |
| 2026-05-08 00:57 | 28.70148 | 76.22447 | 33861 ft | 452 kts | 281° |
| 2026-05-08 00:58 | 28.71157 | 76.15383 | 33860 ft | 451 kts | 281° |
| 2026-05-08 00:58 | 28.72161 | 76.08322 | 33862 ft | 451 kts | 281° |
| 2026-05-08 00:59 | 28.73161 | 76.01260 | 33854 ft | 451 kts | 281° |
| 2026-05-08 00:59 | 28.74158 | 75.94200 | 33854 ft | 451 kts | 281° |
| 2026-05-08 01:00 | 28.74752 | 75.87069 | 33851 ft | 454 kts | 273° |
| 2026-05-08 01:00 | 28.74310 | 75.79873 | 33853 ft | 457 kts | 267° |
| 2026-05-08 01:01 | 28.73645 | 75.72679 | 33846 ft | 456 kts | 268° |
| 2026-05-08 01:01 | 28.73011 | 75.65479 | 33845 ft | 456 kts | 268° |
| 2026-05-08 01:02 | 28.72381 | 75.58290 | 33843 ft | 456 kts | 268° |
| 2026-05-08 01:02 | 28.71746 | 75.51103 | 33841 ft | 456 kts | 268° |
| 2026-05-08 01:03 | 28.71105 | 75.43918 | 33839 ft | 456 kts | 268° |
| 2026-05-08 01:03 | 28.70460 | 75.36731 | 33834 ft | 456 kts | 268° |
| 2026-05-08 01:04 | 28.69813 | 75.29557 | 33835 ft | 455 kts | 268° |
| 2026-05-08 01:04 | 28.69161 | 75.22377 | 33838 ft | 455 kts | 268° |
| 2026-05-08 01:05 | 28.68506 | 75.15209 | 33820 ft | 455 kts | 268° |
| 2026-05-08 01:05 | 28.67848 | 75.08049 | 33830 ft | 454 kts | 268° |
| 2026-05-08 01:06 | 28.67187 | 75.00895 | 33820 ft | 454 kts | 268° |
| 2026-05-08 01:06 | 28.66522 | 74.93745 | 33820 ft | 454 kts | 268° |
| 2026-05-08 01:07 | 28.65854 | 74.86603 | 33824 ft | 454 kts | 268° |
| 2026-05-08 01:07 | 28.65182 | 74.79456 | 33816 ft | 453 kts | 268° |
| 2026-05-08 01:08 | 28.64507 | 74.72322 | 33817 ft | 453 kts | 268° |
| 2026-05-08 01:08 | 28.63829 | 74.65195 | 33815 ft | 453 kts | 268° |
| 2026-05-08 01:09 | 28.63148 | 74.58071 | 33808 ft | 452 kts | 268° |
| 2026-05-08 01:09 | 28.62463 | 74.50948 | 33805 ft | 452 kts | 268° |
| 2026-05-08 01:10 | 28.61776 | 74.43848 | 33809 ft | 451 kts | 268° |
| 2026-05-08 01:10 | 28.61086 | 74.36754 | 33808 ft | 451 kts | 268° |
| 2026-05-08 01:11 | 28.60392 | 74.29660 | 33803 ft | 451 kts | 268° |
| 2026-05-08 01:11 | 28.59696 | 74.22575 | 33802 ft | 450 kts | 268° |
| 2026-05-08 01:12 | 28.58997 | 74.15502 | 33800 ft | 450 kts | 268° |
| 2026-05-08 01:12 | 28.58294 | 74.08435 | 33802 ft | 449 kts | 268° |
| 2026-05-08 01:13 | 28.57590 | 74.01382 | 33795 ft | 449 kts | 268° |
| 2026-05-08 01:13 | 28.56881 | 73.94326 | 33792 ft | 448 kts | 268° |
| 2026-05-08 01:14 | 28.56287 | 73.88428 | 33795 ft | 448 kts | 268° |
| 2026-05-08 01:14 | 28.55574 | 73.81393 | 33791 ft | 448 kts | 268° |
| 2026-05-08 01:15 | 28.55092 | 73.74362 | 33790 ft | 445 kts | 271° |
| 2026-05-08 01:15 | 28.54819 | 73.67330 | 33791 ft | 445 kts | 271° |
| 2026-05-08 01:16 | 28.54529 | 73.60306 | 33791 ft | 445 kts | 271° |
| 2026-05-08 01:16 | 28.54230 | 73.53283 | 33788 ft | 445 kts | 271° |
| 2026-05-08 01:17 | 28.53926 | 73.46254 | 33785 ft | 445 kts | 271° |
| 2026-05-08 01:17 | 28.53618 | 73.39226 | 33786 ft | 445 kts | 271° |
| 2026-05-08 01:18 | 28.53307 | 73.32199 | 33784 ft | 445 kts | 271° |
| 2026-05-08 01:18 | 28.52992 | 73.25167 | 33783 ft | 445 kts | 271° |
| 2026-05-08 01:19 | 28.52673 | 73.18134 | 33784 ft | 445 kts | 271° |
| 2026-05-08 01:19 | 28.52350 | 73.11095 | 33781 ft | 445 kts | 271° |
| 2026-05-08 01:20 | 28.52024 | 73.04065 | 33783 ft | 445 kts | 271° |
| 2026-05-08 01:20 | 28.51694 | 72.97024 | 33785 ft | 446 kts | 271° |
| 2026-05-08 01:21 | 28.51360 | 72.89983 | 33782 ft | 446 kts | 271° |
| 2026-05-08 01:21 | 28.51024 | 72.82941 | 33764 ft | 446 kts | 271° |
| 2026-05-08 01:22 | 28.50683 | 72.75896 | 33776 ft | 446 kts | 271° |
| 2026-05-08 01:22 | 28.50338 | 72.68853 | 33773 ft | 446 kts | 271° |
| 2026-05-08 01:23 | 28.49986 | 72.61757 | 33775 ft | 447 kts | 271° |
| 2026-05-08 01:23 | 28.49635 | 72.54710 | 33774 ft | 447 kts | 271° |
| 2026-05-08 01:24 | 28.49279 | 72.47656 | 33769 ft | 447 kts | 271° |
| 2026-05-08 01:24 | 28.48918 | 72.40595 | 33776 ft | 447 kts | 271° |
| 2026-05-08 01:25 | 28.48556 | 72.33535 | 33772 ft | 447 kts | 271° |
| 2026-05-08 01:25 | 28.49007 | 72.26698 | 33780 ft | 433 kts | 292° |
| 2026-05-08 01:26 | 28.52043 | 72.20759 | 33771 ft | 435 kts | 310° |
| 2026-05-08 01:26 | 28.56539 | 72.16134 | 33768 ft | 438 kts | 317° |
| 2026-05-08 01:27 | 28.61182 | 72.11599 | 33775 ft | 442 kts | 317° |
| 2026-05-08 01:27 | 28.65829 | 72.06980 | 33777 ft | 444 kts | 317° |
| 2026-05-08 01:28 | 28.70440 | 72.02343 | 33774 ft | 445 kts | 316° |
| 2026-05-08 01:28 | 28.75100 | 71.97640 | 33768 ft | 444 kts | 316° |
| 2026-05-08 01:29 | 28.79708 | 71.92981 | 33771 ft | 442 kts | 316° |
| 2026-05-08 01:29 | 28.84299 | 71.88337 | 33772 ft | 440 kts | 316° |
| 2026-05-08 01:30 | 28.88866 | 71.83711 | 33772 ft | 438 kts | 316° |
| 2026-05-08 01:30 | 28.93421 | 71.79092 | 33776 ft | 438 kts | 316° |
| 2026-05-08 01:31 | 28.97972 | 71.74472 | 33775 ft | 438 kts | 316° |
| 2026-05-08 01:31 | 29.02492 | 71.69877 | 33778 ft | 438 kts | 316° |
| 2026-05-08 01:32 | 29.07050 | 71.65238 | 33779 ft | 439 kts | 316° |
| 2026-05-08 01:32 | 29.11606 | 71.60595 | 33775 ft | 439 kts | 316° |
| 2026-05-08 01:33 | 29.16167 | 71.55940 | 33767 ft | 440 kts | 316° |
| 2026-05-08 01:33 | 29.20732 | 71.51277 | 33767 ft | 440 kts | 316° |
| 2026-05-08 01:34 | 29.25298 | 71.46606 | 33765 ft | 440 kts | 316° |
| 2026-05-08 01:34 | 29.29865 | 71.41930 | 33771 ft | 440 kts | 316° |
| 2026-05-08 01:35 | 29.34447 | 71.37277 | 33768 ft | 440 kts | 316° |
| 2026-05-08 01:35 | 29.39034 | 71.32633 | 33772 ft | 439 kts | 316° |
| 2026-05-08 01:36 | 29.43606 | 71.27991 | 33772 ft | 439 kts | 316° |
| 2026-05-08 01:36 | 29.48178 | 71.23340 | 33770 ft | 439 kts | 316° |
| 2026-05-08 01:37 | 29.52742 | 71.18690 | 33770 ft | 438 kts | 316° |
| 2026-05-08 01:37 | 29.57300 | 71.14041 | 33774 ft | 438 kts | 316° |
| 2026-05-08 01:38 | 29.61885 | 71.09357 | 33773 ft | 438 kts | 316° |
| 2026-05-08 01:38 | 29.66410 | 71.04730 | 33774 ft | 438 kts | 316° |
| 2026-05-08 01:39 | 29.71047 | 71.00113 | 33769 ft | 439 kts | 319° |
| 2026-05-08 01:39 | 29.75811 | 70.95715 | 33784 ft | 439 kts | 319° |
| 2026-05-08 01:40 | 29.80577 | 70.91319 | 33789 ft | 439 kts | 319° |
| 2026-05-08 01:40 | 29.85295 | 70.86914 | 33789 ft | 439 kts | 319° |
| 2026-05-08 01:41 | 29.90063 | 70.82438 | 33778 ft | 439 kts | 319° |
| 2026-05-08 01:41 | 29.94805 | 70.77976 | 33776 ft | 440 kts | 319° |
| 2026-05-08 01:42 | 29.99542 | 70.73516 | 33790 ft | 440 kts | 319° |
| 2026-05-08 01:42 | 30.04283 | 70.69046 | 33782 ft | 440 kts | 319° |
| 2026-05-08 01:43 | 30.09021 | 70.64574 | 33787 ft | 440 kts | 319° |
| 2026-05-08 01:43 | 30.13759 | 70.60096 | 33792 ft | 440 kts | 319° |
| 2026-05-08 01:44 | 30.18492 | 70.55616 | 33801 ft | 440 kts | 319° |
| 2026-05-08 01:44 | 30.23235 | 70.51128 | 33813 ft | 440 kts | 319° |
| 2026-05-08 01:45 | 30.28009 | 70.46714 | 33816 ft | 440 kts | 320° |
| 2026-05-08 01:45 | 30.32798 | 70.42317 | 33818 ft | 439 kts | 320° |
| 2026-05-08 01:46 | 30.37584 | 70.37904 | 33838 ft | 439 kts | 320° |
| 2026-05-08 01:46 | 30.42360 | 70.33486 | 33852 ft | 439 kts | 320° |
| 2026-05-08 01:47 | 30.47140 | 70.29055 | 33854 ft | 440 kts | 320° |
| 2026-05-08 01:47 | 30.51923 | 70.24615 | 33862 ft | 440 kts | 320° |
| 2026-05-08 01:48 | 30.58293 | 70.18694 | 33880 ft | 441 kts | 320° |
| 2026-05-08 01:48 | 30.63080 | 70.14238 | 33882 ft | 441 kts | 320° |
| 2026-05-08 01:49 | 30.67873 | 70.09770 | 33886 ft | 442 kts | 320° |
| 2026-05-08 01:49 | 30.72662 | 70.05302 | 33898 ft | 442 kts | 320° |
| 2026-05-08 01:50 | 30.77445 | 70.00837 | 33914 ft | 440 kts | 320° |
| 2026-05-08 01:50 | 30.82220 | 69.96363 | 33919 ft | 441 kts | 320° |
| 2026-05-08 01:51 | 30.86991 | 69.91890 | 33924 ft | 440 kts | 320° |
| 2026-05-08 01:51 | 30.91765 | 69.87412 | 33937 ft | 440 kts | 320° |
| 2026-05-08 01:52 | 30.96535 | 69.82932 | 33944 ft | 440 kts | 320° |
| 2026-05-08 01:52 | 31.01295 | 69.78454 | 33943 ft | 440 kts | 320° |
| 2026-05-08 01:53 | 31.06067 | 69.73958 | 33954 ft | 441 kts | 320° |
| 2026-05-08 01:53 | 31.10849 | 69.69446 | 33959 ft | 442 kts | 320° |
| 2026-05-08 01:54 | 31.15638 | 69.64924 | 33956 ft | 443 kts | 320° |
| 2026-05-08 01:54 | 31.20420 | 69.60401 | 33961 ft | 442 kts | 320° |
| 2026-05-08 01:55 | 31.25203 | 69.55871 | 33955 ft | 442 kts | 320° |
| 2026-05-08 01:55 | 31.29978 | 69.51343 | 33966 ft | 442 kts | 320° |
| 2026-05-08 01:56 | 31.34696 | 69.46737 | 33960 ft | 442 kts | 316° |
| 2026-05-08 01:56 | 31.38789 | 69.41387 | 33968 ft | 442 kts | 308° |
| 2026-05-08 01:57 | 31.42569 | 69.35718 | 33962 ft | 442 kts | 309° |
| 2026-05-08 01:57 | 31.46392 | 69.30089 | 33968 ft | 441 kts | 309° |
| 2026-05-08 01:58 | 31.50212 | 69.24458 | 33972 ft | 442 kts | 309° |
| 2026-05-08 01:58 | 31.54032 | 69.18808 | 33978 ft | 442 kts | 309° |
| 2026-05-08 01:59 | 31.57847 | 69.13155 | 33967 ft | 442 kts | 309° |
| 2026-05-08 01:59 | 31.61663 | 69.07492 | 34010 ft | 441 kts | 309° |
| 2026-05-08 02:00 | 31.65473 | 69.01828 | 33974 ft | 443 kts | 309° |
| 2026-05-08 02:00 | 31.69334 | 68.96207 | 33981 ft | 443 kts | 310° |
| 2026-05-08 02:01 | 31.73319 | 68.90682 | 34008 ft | 443 kts | 311° |
| 2026-05-08 02:01 | 31.77310 | 68.85152 | 33991 ft | 444 kts | 311° |
| 2026-05-08 02:02 | 31.81287 | 68.79597 | 33993 ft | 444 kts | 310° |
| 2026-05-08 02:02 | 31.85281 | 68.73994 | 33997 ft | 444 kts | 310° |
| 2026-05-08 02:03 | 31.89218 | 68.68456 | 34008 ft | 444 kts | 310° |
| 2026-05-08 02:03 | 31.93202 | 68.62845 | 34010 ft | 444 kts | 310° |
| 2026-05-08 02:04 | 31.97160 | 68.57262 | 34008 ft | 443 kts | 310° |
| 2026-05-08 02:04 | 32.01108 | 68.51686 | 34028 ft | 443 kts | 310° |
| 2026-05-08 02:05 | 32.05051 | 68.46110 | 34028 ft | 443 kts | 310° |
| 2026-05-08 02:05 | 32.08992 | 68.40526 | 34034 ft | 443 kts | 310° |
| 2026-05-08 02:06 | 32.12933 | 68.34936 | 34035 ft | 443 kts | 310° |
| 2026-05-08 02:06 | 32.16873 | 68.29338 | 34024 ft | 443 kts | 310° |
| 2026-05-08 02:07 | 32.20811 | 68.23735 | 34019 ft | 444 kts | 310° |
| 2026-05-08 02:07 | 32.24752 | 68.18119 | 34035 ft | 444 kts | 310° |
| 2026-05-08 02:08 | 32.28694 | 68.12493 | 34037 ft | 445 kts | 310° |
| 2026-05-08 02:08 | 32.32640 | 68.06852 | 34034 ft | 445 kts | 310° |
| 2026-05-08 02:09 | 32.36587 | 68.01202 | 34033 ft | 446 kts | 310° |
| 2026-05-08 02:09 | 32.40534 | 67.95543 | 34030 ft | 445 kts | 310° |
| 2026-05-08 02:10 | 32.44476 | 67.89882 | 34031 ft | 445 kts | 310° |
| 2026-05-08 02:10 | 32.48410 | 67.84225 | 34032 ft | 445 kts | 310° |
| 2026-05-08 02:11 | 32.52370 | 67.78609 | 34026 ft | 444 kts | 312° |
| 2026-05-08 02:11 | 32.56483 | 67.73159 | 34031 ft | 443 kts | 313° |
| 2026-05-08 02:12 | 32.60592 | 67.67725 | 34040 ft | 442 kts | 312° |
| 2026-05-08 02:12 | 32.64669 | 67.62273 | 34030 ft | 441 kts | 312° |
| 2026-05-08 02:13 | 32.68727 | 67.56819 | 34032 ft | 440 kts | 312° |
| 2026-05-08 02:13 | 32.72771 | 67.51375 | 34035 ft | 439 kts | 312° |
| 2026-05-08 02:14 | 32.76805 | 67.45941 | 34068 ft | 438 kts | 312° |
| 2026-05-08 02:14 | 32.80762 | 67.40449 | 34039 ft | 436 kts | 310° |
| 2026-05-08 02:15 | 32.84624 | 67.34896 | 34067 ft | 435 kts | 310° |
| 2026-05-08 02:15 | 32.88488 | 67.29336 | 34061 ft | 435 kts | 310° |
| 2026-05-08 02:16 | 32.92354 | 67.23787 | 34089 ft | 436 kts | 310° |
| 2026-05-08 02:16 | 32.96235 | 67.18217 | 34103 ft | 438 kts | 310° |
| 2026-05-08 02:17 | 33.00124 | 67.12634 | 34110 ft | 439 kts | 310° |
| 2026-05-08 02:17 | 33.04012 | 67.07040 | 34119 ft | 437 kts | 310° |
| 2026-05-08 02:18 | 33.07891 | 67.01453 | 34130 ft | 438 kts | 310° |
| 2026-05-08 02:18 | 33.11776 | 66.95852 | 34139 ft | 439 kts | 310° |
| 2026-05-08 02:19 | 33.15667 | 66.90228 | 34142 ft | 440 kts | 310° |
| 2026-05-08 02:19 | 33.19561 | 66.84593 | 34138 ft | 440 kts | 310° |
| 2026-05-08 02:20 | 33.23452 | 66.78955 | 34123 ft | 439 kts | 310° |
| 2026-05-08 02:20 | 33.27324 | 66.73331 | 34137 ft | 439 kts | 310° |
| 2026-05-08 02:21 | 33.31196 | 66.67702 | 34129 ft | 438 kts | 310° |
| 2026-05-08 02:21 | 33.35074 | 66.62055 | 34139 ft | 439 kts | 310° |
| 2026-05-08 02:22 | 33.38954 | 66.56394 | 34106 ft | 440 kts | 309° |
| 2026-05-08 02:22 | 33.42835 | 66.50726 | 34109 ft | 441 kts | 309° |
| 2026-05-08 02:23 | 33.46711 | 66.45053 | 34128 ft | 439 kts | 309° |
| 2026-05-08 02:23 | 33.50567 | 66.39388 | 34093 ft | 439 kts | 309° |
| 2026-05-08 02:24 | 33.53765 | 66.34677 | 34102 ft | 438 kts | 309° |
| 2026-05-08 02:24 | 33.57600 | 66.29013 | 34109 ft | 437 kts | 309° |
| 2026-05-08 02:25 | 33.61435 | 66.23342 | 34132 ft | 438 kts | 309° |
| 2026-05-08 02:25 | 33.65298 | 66.17624 | 34112 ft | 438 kts | 309° |
| 2026-05-08 02:26 | 33.69136 | 66.11933 | 34143 ft | 438 kts | 309° |
| 2026-05-08 02:26 | 33.72972 | 66.06237 | 34127 ft | 439 kts | 309° |
| 2026-05-08 02:27 | 33.76801 | 66.00544 | 34135 ft | 437 kts | 309° |
| 2026-05-08 02:27 | 33.80617 | 65.94856 | 34142 ft | 437 kts | 309° |
| 2026-05-08 02:28 | 33.84432 | 65.89167 | 34137 ft | 436 kts | 308° |
| 2026-05-08 02:28 | 33.88242 | 65.83474 | 34172 ft | 437 kts | 308° |
| 2026-05-08 02:29 | 33.92056 | 65.77763 | 34177 ft | 438 kts | 308° |
| 2026-05-08 02:29 | 33.95879 | 65.72029 | 34153 ft | 439 kts | 308° |
| 2026-05-08 02:30 | 33.99691 | 65.66306 | 34167 ft | 437 kts | 308° |
| 2026-05-08 02:30 | 34.03493 | 65.60589 | 34178 ft | 437 kts | 308° |
| 2026-05-08 02:31 | 34.07287 | 65.54873 | 34173 ft | 436 kts | 308° |
| 2026-05-08 02:31 | 34.11083 | 65.49153 | 34197 ft | 437 kts | 308° |
| 2026-05-08 02:32 | 34.14886 | 65.43420 | 34186 ft | 438 kts | 308° |
| 2026-05-08 02:32 | 34.18693 | 65.37668 | 34195 ft | 438 kts | 308° |
| 2026-05-08 02:33 | 34.22496 | 65.31912 | 34188 ft | 438 kts | 308° |
| 2026-05-08 02:33 | 34.26292 | 65.26158 | 34200 ft | 437 kts | 308° |
| 2026-05-08 02:34 | 34.30080 | 65.20406 | 34196 ft | 437 kts | 308° |
| 2026-05-08 02:34 | 34.33867 | 65.14647 | 34207 ft | 437 kts | 308° |
| 2026-05-08 02:35 | 34.37657 | 65.08872 | 34202 ft | 438 kts | 307° |
| 2026-05-08 02:35 | 34.41418 | 65.03133 | 34202 ft | 438 kts | 307° |
| 2026-05-08 02:36 | 34.45205 | 64.97344 | 34203 ft | 438 kts | 307° |
| 2026-05-08 02:36 | 34.48985 | 64.91561 | 34198 ft | 437 kts | 307° |
| 2026-05-08 02:37 | 34.52760 | 64.85768 | 34188 ft | 437 kts | 307° |
| 2026-05-08 02:37 | 34.56523 | 64.79981 | 34192 ft | 437 kts | 307° |
| 2026-05-08 02:38 | 34.60285 | 64.74185 | 34190 ft | 437 kts | 307° |
| 2026-05-08 02:38 | 34.64041 | 64.68386 | 34182 ft | 437 kts | 307° |
| 2026-05-08 02:39 | 34.67797 | 64.62580 | 34167 ft | 437 kts | 307° |
| 2026-05-08 02:39 | 34.71576 | 64.56730 | 34163 ft | 437 kts | 307° |
| 2026-05-08 02:40 | 34.75328 | 64.50910 | 34154 ft | 438 kts | 307° |
| 2026-05-08 02:40 | 34.79087 | 64.45070 | 34149 ft | 438 kts | 307° |
| 2026-05-08 02:41 | 34.82841 | 64.39229 | 34144 ft | 438 kts | 307° |
| 2026-05-08 02:41 | 34.86591 | 64.33385 | 34142 ft | 438 kts | 307° |
| 2026-05-08 02:42 | 34.90341 | 64.27530 | 34137 ft | 438 kts | 307° |
| 2026-05-08 02:42 | 34.94089 | 64.21670 | 34128 ft | 438 kts | 307° |
| 2026-05-08 02:43 | 34.97833 | 64.15801 | 34122 ft | 438 kts | 306° |
| 2026-05-08 02:43 | 35.01580 | 64.09923 | 34120 ft | 439 kts | 306° |
| 2026-05-08 02:44 | 35.05327 | 64.04036 | 34111 ft | 439 kts | 306° |
| 2026-05-08 02:44 | 35.09072 | 63.98139 | 34120 ft | 440 kts | 306° |
| 2026-05-08 02:45 | 35.12819 | 63.92232 | 34129 ft | 440 kts | 306° |
| 2026-05-08 02:45 | 35.16562 | 63.86314 | 34110 ft | 440 kts | 306° |
| 2026-05-08 02:46 | 35.20305 | 63.80391 | 34104 ft | 440 kts | 306° |
| 2026-05-08 02:46 | 35.24047 | 63.74461 | 34136 ft | 439 kts | 306° |
| 2026-05-08 02:47 | 35.27783 | 63.68528 | 34109 ft | 440 kts | 306° |
| 2026-05-08 02:47 | 35.31521 | 63.62588 | 34104 ft | 440 kts | 306° |
| 2026-05-08 02:48 | 35.35266 | 63.56651 | 34111 ft | 440 kts | 306° |
| 2026-05-08 02:48 | 35.39009 | 63.50712 | 34094 ft | 440 kts | 306° |
| 2026-05-08 02:49 | 35.42750 | 63.44761 | 34111 ft | 440 kts | 306° |
| 2026-05-08 02:49 | 35.46483 | 63.38809 | 34089 ft | 440 kts | 306° |
| 2026-05-08 02:50 | 35.50214 | 63.32849 | 34083 ft | 441 kts | 306° |
| 2026-05-08 02:50 | 35.53948 | 63.26879 | 34080 ft | 441 kts | 306° |
| 2026-05-08 02:51 | 35.58056 | 63.21296 | 34097 ft | 444 kts | 317° |
| 2026-05-08 02:51 | 35.63079 | 63.16839 | 34080 ft | 449 kts | 327° |
| 2026-05-08 02:52 | 35.68668 | 63.13367 | 34070 ft | 451 kts | 329° |
| 2026-05-08 02:52 | 35.74285 | 63.09911 | 34071 ft | 451 kts | 329° |
| 2026-05-08 02:53 | 35.79890 | 63.06422 | 34073 ft | 452 kts | 329° |
| 2026-05-08 02:53 | 35.85495 | 63.02913 | 34071 ft | 452 kts | 329° |
| 2026-05-08 02:54 | 35.91096 | 62.99397 | 34076 ft | 451 kts | 329° |
| 2026-05-08 02:54 | 35.96693 | 62.95879 | 34072 ft | 451 kts | 329° |
| 2026-05-08 02:55 | 36.05074 | 62.90599 | 34067 ft | 450 kts | 329° |
| 2026-05-08 02:56 | 36.10654 | 62.87079 | 34061 ft | 450 kts | 328° |
| 2026-05-08 02:56 | 36.16223 | 62.83560 | 34068 ft | 449 kts | 328° |
| 2026-05-08 02:57 | 36.21778 | 62.80043 | 34067 ft | 447 kts | 328° |
| 2026-05-08 02:57 | 36.27310 | 62.76534 | 34053 ft | 447 kts | 328° |
| 2026-05-08 02:58 | 36.32833 | 62.73027 | 34062 ft | 446 kts | 328° |
| 2026-05-08 02:58 | 36.37425 | 62.70105 | 34057 ft | 446 kts | 328° |
| 2026-05-08 02:59 | 36.42947 | 62.66588 | 34061 ft | 446 kts | 328° |
| 2026-05-08 02:59 | 36.48472 | 62.63062 | 34054 ft | 446 kts | 328° |
| 2026-05-08 03:00 | 36.53995 | 62.59532 | 34052 ft | 447 kts | 328° |
| 2026-05-08 03:00 | 36.59525 | 62.55993 | 34051 ft | 447 kts | 328° |
| 2026-05-08 03:01 | 36.65057 | 62.52447 | 34050 ft | 447 kts | 328° |
| 2026-05-08 03:01 | 36.70583 | 62.48899 | 34045 ft | 447 kts | 328° |
| 2026-05-08 03:02 | 36.76107 | 62.45345 | 34042 ft | 446 kts | 328° |
| 2026-05-08 03:02 | 36.81622 | 62.41792 | 34043 ft | 446 kts | 328° |
| 2026-05-08 03:03 | 36.87130 | 62.38238 | 34043 ft | 446 kts | 328° |
| 2026-05-08 03:03 | 36.92635 | 62.34680 | 34033 ft | 445 kts | 328° |
| 2026-05-08 03:04 | 36.98142 | 62.31114 | 34036 ft | 445 kts | 328° |
| 2026-05-08 03:04 | 37.03643 | 62.27547 | 34032 ft | 445 kts | 328° |
| 2026-05-08 03:05 | 37.09140 | 62.23976 | 34032 ft | 445 kts | 327° |
| 2026-05-08 03:05 | 37.14632 | 62.20402 | 34039 ft | 445 kts | 327° |
| 2026-05-08 03:06 | 37.20121 | 62.16826 | 34029 ft | 444 kts | 327° |
| 2026-05-08 03:06 | 37.25607 | 62.13245 | 34022 ft | 444 kts | 327° |
| 2026-05-08 03:07 | 37.31084 | 62.09663 | 34023 ft | 444 kts | 327° |
| 2026-05-08 03:07 | 37.36556 | 62.06079 | 34034 ft | 443 kts | 327° |
| 2026-05-08 03:08 | 37.42057 | 62.02470 | 34040 ft | 443 kts | 327° |
| 2026-05-08 03:08 | 37.47482 | 61.98905 | 34044 ft | 442 kts | 327° |
| 2026-05-08 03:09 | 37.52931 | 61.95318 | 34051 ft | 442 kts | 327° |
| 2026-05-08 03:09 | 37.58333 | 61.91679 | 34042 ft | 433 kts | 321° |
| 2026-05-08 03:09 | 37.60604 | 61.89207 | 34062 ft | 424 kts | 307° |
| 2026-05-08 03:10 | 37.62332 | 61.86268 | 34066 ft | 423 kts | 300° |
| 2026-05-08 03:10 | 37.64603 | 61.79460 | 34065 ft | 424 kts | 285° |
| 2026-05-08 03:11 | 37.66199 | 61.72237 | 34055 ft | 429 kts | 285° |
| 2026-05-08 03:11 | 37.67836 | 61.65000 | 34030 ft | 425 kts | 285° |
| 2026-05-08 03:12 | 37.69476 | 61.57852 | 34033 ft | 420 kts | 286° |
| 2026-05-08 03:12 | 37.71105 | 61.50776 | 34038 ft | 420 kts | 285° |
| 2026-05-08 03:13 | 37.72732 | 61.43696 | 34034 ft | 420 kts | 285° |
| 2026-05-08 03:13 | 37.74347 | 61.36647 | 34032 ft | 420 kts | 285° |
| 2026-05-08 03:14 | 37.75967 | 61.29551 | 34035 ft | 420 kts | 285° |
| 2026-05-08 03:14 | 37.77582 | 61.22455 | 34034 ft | 420 kts | 285° |
| 2026-05-08 03:15 | 37.79191 | 61.15362 | 34034 ft | 419 kts | 285° |
| 2026-05-08 03:15 | 37.80805 | 61.08224 | 34037 ft | 419 kts | 285° |
| 2026-05-08 03:16 | 37.82403 | 61.01139 | 34040 ft | 419 kts | 285° |
| 2026-05-08 03:16 | 37.83997 | 60.94048 | 34045 ft | 418 kts | 284° |
| 2026-05-08 03:17 | 37.85574 | 60.87009 | 34039 ft | 418 kts | 284° |
| 2026-05-08 03:17 | 37.87156 | 60.79927 | 34041 ft | 418 kts | 284° |
| 2026-05-08 03:18 | 37.88741 | 60.72809 | 34042 ft | 417 kts | 284° |
| 2026-05-08 03:18 | 37.90312 | 60.65733 | 34043 ft | 417 kts | 284° |
| 2026-05-08 03:19 | 37.91878 | 60.58653 | 34049 ft | 417 kts | 284° |
| 2026-05-08 03:19 | 37.93442 | 60.51566 | 34053 ft | 418 kts | 284° |
| 2026-05-08 03:20 | 37.95001 | 60.44474 | 34048 ft | 418 kts | 284° |
| 2026-05-08 03:20 | 37.96555 | 60.37385 | 34054 ft | 418 kts | 284° |
| 2026-05-08 03:21 | 37.98106 | 60.30287 | 34043 ft | 418 kts | 284° |
| 2026-05-08 03:21 | 37.99653 | 60.23185 | 34046 ft | 418 kts | 283° |
| 2026-05-08 03:22 | 38.01194 | 60.16085 | 34047 ft | 418 kts | 283° |
| 2026-05-08 03:22 | 38.02724 | 60.08983 | 34054 ft | 418 kts | 283° |
| 2026-05-08 03:23 | 38.04250 | 60.01868 | 34057 ft | 418 kts | 283° |
| 2026-05-08 03:23 | 38.05771 | 59.94754 | 34059 ft | 418 kts | 283° |
| 2026-05-08 03:24 | 38.07288 | 59.87641 | 34056 ft | 417 kts | 283° |
| 2026-05-08 03:24 | 38.08801 | 59.80521 | 34060 ft | 417 kts | 283° |
| 2026-05-08 03:25 | 38.10310 | 59.73396 | 34055 ft | 417 kts | 283° |
| 2026-05-08 03:25 | 38.11813 | 59.66278 | 34058 ft | 417 kts | 282° |
| 2026-05-08 03:26 | 38.13311 | 59.59159 | 34059 ft | 417 kts | 282° |
| 2026-05-08 03:26 | 38.14809 | 59.52022 | 34059 ft | 418 kts | 282° |
| 2026-05-08 03:27 | 38.16302 | 59.44878 | 34278 ft | 419 kts | 282° |
| 2026-05-08 03:27 | 38.17047 | 59.41304 | 34580 ft | 417 kts | 282° |
| 2026-05-08 03:27 | 38.17788 | 59.37748 | 34884 ft | 416 kts | 282° |
| 2026-05-08 03:27 | 38.18525 | 59.34204 | 35147 ft | 415 kts | 282° |
| 2026-05-08 03:28 | 38.19262 | 59.30654 | 35379 ft | 415 kts | 282° |
| 2026-05-08 03:28 | 38.19995 | 59.27115 | 35610 ft | 414 kts | 282° |
| 2026-05-08 03:28 | 38.20727 | 59.23574 | 35844 ft | 414 kts | 282° |
| 2026-05-08 03:28 | 38.21459 | 59.20031 | 35970 ft | 415 kts | 282° |
| 2026-05-08 03:29 | 38.22190 | 59.16486 | 36006 ft | 414 kts | 282° |
| 2026-05-08 03:29 | 38.23638 | 59.09447 | 36053 ft | 409 kts | 282° |
| 2026-05-08 03:30 | 38.25779 | 58.98992 | 36063 ft | 406 kts | 282° |
| 2026-05-08 03:31 | 38.28607 | 58.85103 | 36067 ft | 405 kts | 281° |
| 2026-05-08 03:32 | 38.30719 | 58.74670 | 36069 ft | 406 kts | 281° |
| 2026-05-08 03:32 | 38.32126 | 58.67691 | 36065 ft | 407 kts | 281° |
| 2026-05-08 03:33 | 38.33530 | 58.60707 | 36065 ft | 407 kts | 281° |
| 2026-05-08 03:33 | 38.34695 | 58.54893 | 36063 ft | 408 kts | 281° |
| 2026-05-08 03:34 | 38.36092 | 58.47895 | 36068 ft | 407 kts | 281° |
| 2026-05-08 03:34 | 38.37485 | 58.40895 | 36068 ft | 407 kts | 281° |
| 2026-05-08 03:35 | 38.38874 | 58.33900 | 36067 ft | 406 kts | 280° |
| 2026-05-08 03:35 | 38.40464 | 58.26982 | 36080 ft | 409 kts | 286° |
| 2026-05-08 03:36 | 38.42807 | 58.20343 | 36079 ft | 410 kts | 289° |
| 2026-05-08 03:36 | 38.45165 | 58.13720 | 36074 ft | 409 kts | 289° |
| 2026-05-08 03:37 | 38.47500 | 58.07100 | 36079 ft | 409 kts | 288° |
| 2026-05-08 03:37 | 38.49836 | 58.00481 | 36073 ft | 409 kts | 288° |
| 2026-05-08 03:38 | 38.52169 | 57.93866 | 36077 ft | 409 kts | 288° |
| 2026-05-08 03:38 | 38.54501 | 57.87238 | 36078 ft | 409 kts | 288° |
| 2026-05-08 03:39 | 38.56830 | 57.80608 | 36083 ft | 409 kts | 288° |
| 2026-05-08 03:39 | 38.59157 | 57.73966 | 36080 ft | 409 kts | 288° |
| 2026-05-08 03:40 | 38.61479 | 57.67319 | 36083 ft | 409 kts | 287° |
| 2026-05-08 03:40 | 38.63505 | 57.60510 | 36083 ft | 406 kts | 284° |
| 2026-05-08 03:41 | 38.65427 | 57.53753 | 36085 ft | 407 kts | 283° |
| 2026-05-08 03:41 | 38.67366 | 57.46951 | 36087 ft | 407 kts | 283° |
| 2026-05-08 03:42 | 38.69303 | 57.40146 | 36086 ft | 407 kts | 283° |
| 2026-05-08 03:42 | 38.71239 | 57.33333 | 36087 ft | 407 kts | 283° |
| 2026-05-08 03:43 | 38.73184 | 57.26466 | 36095 ft | 407 kts | 283° |
| 2026-05-08 03:43 | 38.75114 | 57.19636 | 36095 ft | 408 kts | 283° |
| 2026-05-08 03:44 | 38.77028 | 57.12842 | 36096 ft | 408 kts | 283° |
| 2026-05-08 03:44 | 38.78954 | 57.05992 | 36096 ft | 409 kts | 283° |
| 2026-05-08 03:45 | 38.80888 | 56.99087 | 36098 ft | 409 kts | 282° |
| 2026-05-08 03:45 | 38.82808 | 56.92223 | 36106 ft | 409 kts | 282° |
| 2026-05-08 03:46 | 38.84724 | 56.85351 | 36100 ft | 409 kts | 282° |
| 2026-05-08 03:46 | 38.86640 | 56.78464 | 36104 ft | 409 kts | 282° |
| 2026-05-08 03:47 | 38.88548 | 56.71584 | 36107 ft | 410 kts | 282° |
| 2026-05-08 03:47 | 38.90454 | 56.64694 | 36110 ft | 410 kts | 282° |
| 2026-05-08 03:48 | 38.92357 | 56.57793 | 36108 ft | 410 kts | 282° |
| 2026-05-08 03:48 | 38.94258 | 56.50887 | 36115 ft | 410 kts | 282° |
| 2026-05-08 03:49 | 38.96154 | 56.43977 | 36114 ft | 410 kts | 281° |
| 2026-05-08 03:49 | 38.98046 | 56.37062 | 36111 ft | 410 kts | 281° |
| 2026-05-08 03:50 | 38.99934 | 56.30148 | 36120 ft | 410 kts | 281° |
| 2026-05-08 03:50 | 39.01638 | 56.23183 | 36114 ft | 407 kts | 278° |
| 2026-05-08 03:51 | 39.03189 | 56.16183 | 36118 ft | 407 kts | 278° |
| 2026-05-08 03:51 | 39.04754 | 56.09187 | 36119 ft | 407 kts | 278° |
| 2026-05-08 03:52 | 39.06339 | 56.02189 | 36117 ft | 407 kts | 278° |
| 2026-05-08 03:52 | 39.07917 | 55.95233 | 36122 ft | 408 kts | 278° |
| 2026-05-08 03:53 | 39.09514 | 55.88182 | 36123 ft | 408 kts | 278° |
| 2026-05-08 03:53 | 39.11096 | 55.81167 | 36124 ft | 408 kts | 278° |
| 2026-05-08 03:54 | 39.12666 | 55.74193 | 36133 ft | 408 kts | 277° |
| 2026-05-08 03:54 | 39.14248 | 55.67129 | 36129 ft | 408 kts | 277° |
| 2026-05-08 03:55 | 39.15820 | 55.60100 | 36129 ft | 409 kts | 277° |
| 2026-05-08 03:55 | 39.17391 | 55.53057 | 36139 ft | 409 kts | 277° |
| 2026-05-08 03:56 | 39.18956 | 55.46008 | 36144 ft | 410 kts | 277° |
| 2026-05-08 03:56 | 39.20521 | 55.38936 | 36131 ft | 411 kts | 277° |
| 2026-05-08 03:57 | 39.22087 | 55.31851 | 36132 ft | 411 kts | 277° |
| 2026-05-08 03:57 | 39.23649 | 55.24757 | 36133 ft | 411 kts | 277° |
| 2026-05-08 03:58 | 39.25208 | 55.17656 | 36136 ft | 411 kts | 277° |
| 2026-05-08 03:58 | 39.26761 | 55.10555 | 36130 ft | 411 kts | 277° |
| 2026-05-08 03:59 | 39.28312 | 55.03439 | 36133 ft | 411 kts | 277° |
| 2026-05-08 03:59 | 39.29856 | 54.96329 | 36126 ft | 411 kts | 277° |
| 2026-05-08 04:00 | 39.31397 | 54.89222 | 36127 ft | 411 kts | 277° |
| 2026-05-08 04:00 | 39.32934 | 54.82102 | 36131 ft | 411 kts | 277° |
| 2026-05-08 04:01 | 39.34467 | 54.74978 | 36140 ft | 412 kts | 277° |
| 2026-05-08 04:01 | 39.35998 | 54.67835 | 36146 ft | 413 kts | 277° |
| 2026-05-08 04:02 | 39.37530 | 54.60670 | 36134 ft | 414 kts | 276° |
| 2026-05-08 04:02 | 39.39059 | 54.53497 | 36140 ft | 414 kts | 276° |
| 2026-05-08 04:03 | 39.40586 | 54.46303 | 36135 ft | 415 kts | 276° |
| 2026-05-08 04:03 | 39.42873 | 54.35493 | 36132 ft | 416 kts | 276° |
| 2026-05-08 04:04 | 39.44394 | 54.28270 | 36129 ft | 416 kts | 276° |
| 2026-05-08 04:04 | 39.45911 | 54.21041 | 36141 ft | 416 kts | 276° |
| 2026-05-08 04:05 | 39.47423 | 54.13819 | 36142 ft | 416 kts | 276° |
| 2026-05-08 04:05 | 39.49035 | 54.06608 | 36130 ft | 423 kts | 281° |
| 2026-05-08 04:06 | 39.51549 | 53.99607 | 36141 ft | 433 kts | 288° |
| 2026-05-08 04:06 | 39.54847 | 53.92936 | 36136 ft | 444 kts | 294° |
| 2026-05-08 04:07 | 39.58431 | 53.86405 | 36140 ft | 444 kts | 295° |
| 2026-05-08 04:07 | 39.62002 | 53.79854 | 36137 ft | 445 kts | 294° |
| 2026-05-08 04:08 | 39.64977 | 53.74354 | 36135 ft | 445 kts | 294° |
| 2026-05-08 04:08 | 39.68521 | 53.67772 | 36133 ft | 445 kts | 294° |
| 2026-05-08 04:09 | 39.72066 | 53.61172 | 36140 ft | 446 kts | 294° |
| 2026-05-08 04:09 | 39.75612 | 53.54556 | 36138 ft | 446 kts | 295° |
| 2026-05-08 04:10 | 39.79162 | 53.47921 | 36143 ft | 447 kts | 295° |
| 2026-05-08 04:10 | 39.82713 | 53.41269 | 36142 ft | 448 kts | 295° |
| 2026-05-08 04:11 | 39.86267 | 53.34599 | 36142 ft | 449 kts | 295° |
| 2026-05-08 04:11 | 39.89822 | 53.27913 | 36151 ft | 449 kts | 295° |
| 2026-05-08 04:12 | 39.93383 | 53.21200 | 36140 ft | 450 kts | 295° |
| 2026-05-08 04:12 | 39.96941 | 53.14479 | 36138 ft | 451 kts | 295° |
| 2026-05-08 04:13 | 40.00508 | 53.07728 | 36138 ft | 452 kts | 296° |
| 2026-05-08 04:13 | 40.04081 | 53.00950 | 36140 ft | 454 kts | 296° |
| 2026-05-08 04:14 | 40.07666 | 52.94164 | 36138 ft | 455 kts | 296° |
| 2026-05-08 04:14 | 40.11260 | 52.87361 | 36141 ft | 455 kts | 296° |
| 2026-05-08 04:15 | 40.14854 | 52.80539 | 36145 ft | 456 kts | 296° |
| 2026-05-08 04:15 | 40.18446 | 52.73703 | 36151 ft | 456 kts | 296° |
| 2026-05-08 04:16 | 40.22037 | 52.66856 | 36151 ft | 456 kts | 296° |
| 2026-05-08 04:16 | 40.25321 | 52.59827 | 36154 ft | 447 kts | 288° |
| 2026-05-08 04:17 | 40.27562 | 52.52322 | 36147 ft | 439 kts | 279° |
| 2026-05-08 04:17 | 40.29027 | 52.44609 | 36155 ft | 437 kts | 277° |
| 2026-05-08 04:18 | 40.30481 | 52.36876 | 36159 ft | 438 kts | 278° |
| 2026-05-08 04:18 | 40.31952 | 52.29116 | 36160 ft | 439 kts | 278° |
| 2026-05-08 04:19 | 40.33426 | 52.21342 | 36159 ft | 440 kts | 278° |
| 2026-05-08 04:19 | 40.34901 | 52.13537 | 36162 ft | 441 kts | 278° |
| 2026-05-08 04:20 | 40.36370 | 52.05731 | 36164 ft | 441 kts | 278° |
| 2026-05-08 04:20 | 40.37836 | 51.97906 | 36161 ft | 442 kts | 278° |
| 2026-05-08 04:21 | 40.39296 | 51.90081 | 36160 ft | 442 kts | 278° |
| 2026-05-08 04:21 | 40.40751 | 51.82253 | 36159 ft | 442 kts | 277° |
| 2026-05-08 04:22 | 40.42200 | 51.74424 | 36162 ft | 441 kts | 277° |
| 2026-05-08 04:22 | 40.43644 | 51.66593 | 36161 ft | 441 kts | 277° |
| 2026-05-08 04:23 | 40.45083 | 51.58754 | 36160 ft | 441 kts | 277° |
| 2026-05-08 04:23 | 40.46511 | 51.50914 | 36161 ft | 441 kts | 276° |
| 2026-05-08 04:24 | 40.47368 | 51.43018 | 36165 ft | 436 kts | 271° |
| 2026-05-08 04:24 | 40.48077 | 51.35109 | 36163 ft | 436 kts | 271° |
| 2026-05-08 04:25 | 40.48813 | 51.27184 | 36163 ft | 437 kts | 271° |
| 2026-05-08 04:25 | 40.49545 | 51.19257 | 36150 ft | 437 kts | 271° |
| 2026-05-08 04:26 | 40.50271 | 51.11312 | 36156 ft | 438 kts | 271° |
| 2026-05-08 04:26 | 40.50991 | 51.03354 | 36156 ft | 439 kts | 271° |
| 2026-05-08 04:27 | 40.51707 | 50.95389 | 36155 ft | 439 kts | 271° |
| 2026-05-08 04:27 | 40.52587 | 50.87419 | 36148 ft | 442 kts | 274° |
| 2026-05-08 04:28 | 40.53654 | 50.79463 | 36151 ft | 442 kts | 274° |
| 2026-05-08 04:28 | 40.54717 | 50.71500 | 36146 ft | 442 kts | 274° |
| 2026-05-08 04:29 | 40.55765 | 50.63521 | 36140 ft | 442 kts | 274° |
| 2026-05-08 04:29 | 40.56803 | 50.55547 | 36138 ft | 443 kts | 274° |
| 2026-05-08 04:30 | 40.57834 | 50.47568 | 36145 ft | 442 kts | 274° |
| 2026-05-08 04:30 | 40.58861 | 50.39582 | 36140 ft | 442 kts | 274° |
| 2026-05-08 04:31 | 40.59883 | 50.31590 | 36130 ft | 443 kts | 274° |
| 2026-05-08 04:31 | 40.60899 | 50.23600 | 36137 ft | 443 kts | 274° |
| 2026-05-08 04:32 | 40.61910 | 50.15604 | 36130 ft | 443 kts | 274° |
| 2026-05-08 04:32 | 40.62915 | 50.07602 | 36136 ft | 443 kts | 274° |
| 2026-05-08 04:33 | 40.63916 | 49.99592 | 36135 ft | 443 kts | 274° |
| 2026-05-08 04:33 | 40.64912 | 49.91581 | 36137 ft | 444 kts | 274° |
| 2026-05-08 04:34 | 40.65902 | 49.83563 | 36136 ft | 444 kts | 274° |
| 2026-05-08 04:34 | 40.66887 | 49.75537 | 36140 ft | 444 kts | 274° |
| 2026-05-08 04:35 | 40.67867 | 49.67511 | 36142 ft | 444 kts | 274° |
| 2026-05-08 04:35 | 40.68842 | 49.59479 | 36143 ft | 444 kts | 274° |
| 2026-05-08 04:36 | 40.69812 | 49.51439 | 36146 ft | 444 kts | 274° |
| 2026-05-08 04:36 | 40.70766 | 49.43382 | 36147 ft | 445 kts | 274° |
| 2026-05-08 04:37 | 40.71707 | 49.35315 | 36142 ft | 445 kts | 274° |
| 2026-05-08 04:37 | 40.72646 | 49.27263 | 36158 ft | 445 kts | 274° |
| 2026-05-08 04:38 | 40.73492 | 49.19185 | 36159 ft | 443 kts | 271° |
| 2026-05-08 04:38 | 40.74063 | 49.11102 | 36169 ft | 443 kts | 270° |
| 2026-05-08 04:39 | 40.74608 | 49.02992 | 36156 ft | 445 kts | 271° |
| 2026-05-08 04:39 | 40.75184 | 48.94860 | 36184 ft | 446 kts | 271° |
| 2026-05-08 04:40 | 40.75773 | 48.86717 | 36174 ft | 445 kts | 271° |
| 2026-05-08 04:40 | 40.76363 | 48.78580 | 36179 ft | 446 kts | 271° |
| 2026-05-08 04:41 | 40.76948 | 48.70417 | 36174 ft | 447 kts | 271° |
| 2026-05-08 04:41 | 40.77524 | 48.62251 | 36172 ft | 448 kts | 271° |
| 2026-05-08 04:42 | 40.78098 | 48.54057 | 36179 ft | 448 kts | 271° |
| 2026-05-08 04:42 | 40.78569 | 48.47256 | 36177 ft | 448 kts | 271° |
| 2026-05-08 04:43 | 40.79131 | 48.39062 | 36192 ft | 449 kts | 271° |
| 2026-05-08 04:43 | 40.79688 | 48.30852 | 36177 ft | 449 kts | 271° |
| 2026-05-08 04:44 | 40.80242 | 48.22635 | 36185 ft | 450 kts | 271° |
| 2026-05-08 04:44 | 40.80788 | 48.14412 | 36184 ft | 450 kts | 271° |
| 2026-05-08 04:45 | 40.81329 | 48.06194 | 36189 ft | 449 kts | 271° |
| 2026-05-08 04:45 | 40.81863 | 47.97977 | 36179 ft | 449 kts | 271° |
| 2026-05-08 04:46 | 40.82390 | 47.89784 | 36194 ft | 448 kts | 271° |
| 2026-05-08 04:46 | 40.82912 | 47.81586 | 36186 ft | 448 kts | 271° |
| 2026-05-08 04:47 | 40.83428 | 47.73386 | 36184 ft | 448 kts | 271° |
| 2026-05-08 04:47 | 40.83937 | 47.65191 | 36189 ft | 447 kts | 271° |
| 2026-05-08 04:48 | 40.84442 | 47.57004 | 36188 ft | 447 kts | 271° |
| 2026-05-08 04:48 | 40.84953 | 47.48765 | 36190 ft | 448 kts | 271° |
| 2026-05-08 04:49 | 40.85576 | 47.40570 | 36190 ft | 448 kts | 272° |
| 2026-05-08 04:49 | 40.86215 | 47.32422 | 36180 ft | 449 kts | 272° |
| 2026-05-08 04:50 | 40.86844 | 47.24167 | 36173 ft | 449 kts | 272° |
| 2026-05-08 04:50 | 40.87454 | 47.15957 | 36177 ft | 449 kts | 272° |
| 2026-05-08 04:51 | 40.88057 | 47.07745 | 36179 ft | 449 kts | 271° |
| 2026-05-08 04:51 | 40.88658 | 46.99509 | 36169 ft | 450 kts | 271° |
| 2026-05-08 04:52 | 40.89252 | 46.91285 | 36182 ft | 450 kts | 271° |
| 2026-05-08 04:52 | 40.89735 | 46.83050 | 36179 ft | 448 kts | 267° |
| 2026-05-08 04:53 | 40.89258 | 46.74903 | 36183 ft | 444 kts | 259° |
| 2026-05-08 04:53 | 40.88449 | 46.66812 | 36174 ft | 444 kts | 260° |
| 2026-05-08 04:54 | 40.87684 | 46.58696 | 36187 ft | 445 kts | 260° |
| 2026-05-08 04:54 | 40.86918 | 46.50579 | 36174 ft | 445 kts | 260° |
| 2026-05-08 04:55 | 40.86143 | 46.42450 | 36179 ft | 446 kts | 260° |
| 2026-05-08 04:55 | 40.85360 | 46.34332 | 36187 ft | 446 kts | 260° |
| 2026-05-08 04:56 | 40.84569 | 46.26199 | 36183 ft | 446 kts | 260° |
| 2026-05-08 04:56 | 40.83773 | 46.18066 | 36181 ft | 447 kts | 260° |
| 2026-05-08 04:57 | 40.82971 | 46.09933 | 36180 ft | 447 kts | 260° |
| 2026-05-08 04:57 | 40.82162 | 46.01793 | 36173 ft | 447 kts | 260° |
| 2026-05-08 04:58 | 40.81348 | 45.93664 | 36172 ft | 447 kts | 260° |
| 2026-05-08 04:58 | 40.80529 | 45.85530 | 36166 ft | 447 kts | 260° |
| 2026-05-08 04:59 | 40.79704 | 45.77410 | 36173 ft | 446 kts | 260° |
| 2026-05-08 04:59 | 40.78879 | 45.69329 | 36185 ft | 447 kts | 260° |
| 2026-05-08 05:00 | 40.78036 | 45.61139 | 36176 ft | 447 kts | 260° |
| 2026-05-08 05:00 | 40.77204 | 45.53005 | 36184 ft | 448 kts | 261° |
| 2026-05-08 05:01 | 40.77086 | 45.44757 | 36186 ft | 453 kts | 271° |
| 2026-05-08 05:01 | 40.77534 | 45.36468 | 36199 ft | 452 kts | 270° |
| 2026-05-08 05:02 | 40.77918 | 45.28180 | 36194 ft | 452 kts | 270° |
| 2026-05-08 05:02 | 40.78282 | 45.19898 | 36196 ft | 452 kts | 270° |
| 2026-05-08 05:03 | 40.78645 | 45.11618 | 36204 ft | 452 kts | 270° |
| 2026-05-08 05:03 | 40.79004 | 45.03397 | 36198 ft | 451 kts | 270° |
| 2026-05-08 05:04 | 40.79358 | 44.95121 | 36205 ft | 451 kts | 270° |
| 2026-05-08 05:04 | 40.79696 | 44.86848 | 36201 ft | 451 kts | 270° |
| 2026-05-08 05:05 | 40.80036 | 44.78573 | 36216 ft | 452 kts | 270° |
| 2026-05-08 05:05 | 40.80371 | 44.70280 | 36206 ft | 453 kts | 270° |
| 2026-05-08 05:06 | 40.80702 | 44.61980 | 36207 ft | 453 kts | 270° |
| 2026-05-08 05:06 | 40.81029 | 44.53653 | 36209 ft | 454 kts | 270° |
| 2026-05-08 05:07 | 40.81346 | 44.45321 | 36206 ft | 454 kts | 270° |
| 2026-05-08 05:07 | 40.81656 | 44.36996 | 36222 ft | 454 kts | 270° |
| 2026-05-08 05:08 | 40.81965 | 44.28647 | 36230 ft | 455 kts | 270° |
| 2026-05-08 05:08 | 40.82266 | 44.20297 | 36226 ft | 456 kts | 270° |
| 2026-05-08 05:09 | 40.82561 | 44.11930 | 36226 ft | 456 kts | 270° |
| 2026-05-08 05:09 | 40.82852 | 44.03558 | 36238 ft | 457 kts | 270° |
| 2026-05-08 05:10 | 40.83276 | 43.90962 | 36243 ft | 459 kts | 270° |
| 2026-05-08 05:11 | 40.83553 | 43.82530 | 36240 ft | 460 kts | 270° |
| 2026-05-08 05:11 | 40.83825 | 43.74072 | 36185 ft | 461 kts | 271° |
| 2026-05-08 05:12 | 40.84114 | 43.65515 | 36237 ft | 471 kts | 273° |
| 2026-05-08 05:12 | 40.84595 | 43.56780 | 36251 ft | 480 kts | 274° |
| 2026-05-08 05:13 | 40.85127 | 43.47960 | 36231 ft | 482 kts | 274° |
| 2026-05-08 05:13 | 40.85633 | 43.39120 | 36234 ft | 483 kts | 274° |
| 2026-05-08 05:14 | 40.86113 | 43.30277 | 36231 ft | 482 kts | 274° |
| 2026-05-08 05:14 | 40.86580 | 43.21456 | 36235 ft | 480 kts | 274° |
| 2026-05-08 05:15 | 40.87040 | 43.12660 | 36239 ft | 479 kts | 274° |
| 2026-05-08 05:15 | 40.87493 | 43.03897 | 36246 ft | 478 kts | 274° |
| 2026-05-08 05:16 | 40.87937 | 42.95140 | 36243 ft | 477 kts | 274° |
| 2026-05-08 05:16 | 40.88377 | 42.86387 | 36252 ft | 477 kts | 274° |
| 2026-05-08 05:17 | 40.88810 | 42.77629 | 36257 ft | 478 kts | 274° |
| 2026-05-08 05:17 | 40.89235 | 42.68857 | 36258 ft | 478 kts | 274° |
| 2026-05-08 05:18 | 40.89587 | 42.61500 | 36256 ft | 479 kts | 274° |
| 2026-05-08 05:18 | 40.90002 | 42.52718 | 36260 ft | 479 kts | 274° |
| 2026-05-08 05:19 | 40.90410 | 42.43916 | 36259 ft | 480 kts | 274° |
| 2026-05-08 05:19 | 40.90812 | 42.35112 | 36256 ft | 480 kts | 274° |
| 2026-05-08 05:20 | 40.91209 | 42.26287 | 36248 ft | 481 kts | 274° |
| 2026-05-08 05:20 | 40.91598 | 42.17462 | 36251 ft | 481 kts | 274° |
| 2026-05-08 05:21 | 40.91980 | 42.08635 | 36249 ft | 481 kts | 274° |
| 2026-05-08 05:21 | 40.92356 | 41.99799 | 36245 ft | 481 kts | 274° |
| 2026-05-08 05:22 | 40.92726 | 41.90956 | 36243 ft | 482 kts | 274° |
| 2026-05-08 05:22 | 40.93090 | 41.82092 | 36239 ft | 482 kts | 274° |
| 2026-05-08 05:23 | 40.93446 | 41.73249 | 36235 ft | 481 kts | 274° |
| 2026-05-08 05:23 | 40.93797 | 41.64410 | 36242 ft | 481 kts | 274° |
| 2026-05-08 05:24 | 40.94139 | 41.55561 | 36233 ft | 481 kts | 274° |
| 2026-05-08 05:24 | 40.94473 | 41.46726 | 36233 ft | 481 kts | 274° |
| 2026-05-08 05:25 | 40.94802 | 41.37879 | 36229 ft | 481 kts | 274° |
| 2026-05-08 05:25 | 40.95126 | 41.29029 | 36223 ft | 481 kts | 274° |
| 2026-05-08 05:26 | 40.95443 | 41.20179 | 36222 ft | 481 kts | 274° |
| 2026-05-08 05:26 | 40.95750 | 41.11337 | 36213 ft | 481 kts | 274° |
| 2026-05-08 05:27 | 40.96051 | 41.02496 | 36219 ft | 481 kts | 274° |
| 2026-05-08 05:27 | 40.96348 | 40.93657 | 36213 ft | 481 kts | 274° |
| 2026-05-08 05:28 | 40.96635 | 40.84815 | 36216 ft | 481 kts | 274° |
| 2026-05-08 05:28 | 40.96911 | 40.75969 | 36207 ft | 481 kts | 274° |
| 2026-05-08 05:29 | 40.97181 | 40.67131 | 36203 ft | 481 kts | 274° |
| 2026-05-08 05:29 | 40.97445 | 40.58287 | 36199 ft | 481 kts | 274° |
| 2026-05-08 05:30 | 40.97702 | 40.49446 | 36196 ft | 480 kts | 274° |
| 2026-05-08 05:30 | 40.97954 | 40.40609 | 36197 ft | 480 kts | 274° |
| 2026-05-08 05:31 | 40.98195 | 40.31772 | 36206 ft | 480 kts | 274° |
| 2026-05-08 05:31 | 40.98434 | 40.22940 | 36204 ft | 480 kts | 274° |
| 2026-05-08 05:32 | 40.98664 | 40.14104 | 36207 ft | 480 kts | 274° |
| 2026-05-08 05:32 | 40.98887 | 40.05272 | 36209 ft | 480 kts | 274° |
| 2026-05-08 05:33 | 40.99104 | 39.96437 | 36211 ft | 480 kts | 274° |
| 2026-05-08 05:33 | 40.99316 | 39.87606 | 36211 ft | 480 kts | 274° |
| 2026-05-08 05:34 | 40.99546 | 39.78780 | 36211 ft | 479 kts | 276° |
| 2026-05-08 05:34 | 41.00323 | 39.70021 | 36223 ft | 478 kts | 280° |
| 2026-05-08 05:35 | 41.01233 | 39.61297 | 36213 ft | 478 kts | 280° |
| 2026-05-08 05:35 | 41.02094 | 39.52553 | 36215 ft | 479 kts | 279° |
| 2026-05-08 05:36 | 41.02920 | 39.43798 | 36198 ft | 479 kts | 279° |
| 2026-05-08 05:36 | 41.03734 | 39.35052 | 36211 ft | 478 kts | 279° |
| 2026-05-08 05:37 | 41.04543 | 39.26306 | 36211 ft | 478 kts | 279° |
| 2026-05-08 05:37 | 41.05348 | 39.17561 | 36202 ft | 478 kts | 279° |
| 2026-05-08 05:38 | 41.06152 | 39.08821 | 36191 ft | 477 kts | 279° |
| 2026-05-08 05:38 | 41.06965 | 39.00109 | 36194 ft | 476 kts | 279° |
| 2026-05-08 05:39 | 41.07771 | 38.91404 | 36197 ft | 475 kts | 279° |
| 2026-05-08 05:39 | 41.08568 | 38.82700 | 36201 ft | 475 kts | 279° |
| 2026-05-08 05:40 | 41.09357 | 38.74012 | 36204 ft | 475 kts | 279° |
| 2026-05-08 05:40 | 41.10120 | 38.65314 | 36202 ft | 475 kts | 278° |
| 2026-05-08 05:41 | 41.10836 | 38.56600 | 36203 ft | 475 kts | 279° |
| 2026-05-08 05:41 | 41.11572 | 38.47895 | 36206 ft | 475 kts | 279° |
| 2026-05-08 05:42 | 41.12307 | 38.39174 | 36207 ft | 475 kts | 279° |
| 2026-05-08 05:42 | 41.13033 | 38.30454 | 36209 ft | 476 kts | 278° |
| 2026-05-08 05:43 | 41.13747 | 38.21736 | 36211 ft | 476 kts | 278° |
| 2026-05-08 05:43 | 41.14449 | 38.13013 | 36208 ft | 476 kts | 278° |
| 2026-05-08 05:44 | 41.15147 | 38.04285 | 36208 ft | 475 kts | 278° |
| 2026-05-08 05:44 | 41.15838 | 37.95562 | 36206 ft | 475 kts | 278° |
| 2026-05-08 05:45 | 41.16526 | 37.86838 | 36203 ft | 475 kts | 278° |
| 2026-05-08 05:45 | 41.17281 | 37.78137 | 36200 ft | 474 kts | 279° |
| 2026-05-08 05:46 | 41.18041 | 37.69502 | 36192 ft | 474 kts | 279° |
| 2026-05-08 05:46 | 41.18788 | 37.60758 | 36192 ft | 474 kts | 278° |
| 2026-05-08 05:47 | 41.19233 | 37.52021 | 36193 ft | 474 kts | 277° |
| 2026-05-08 05:47 | 41.19844 | 37.43322 | 36186 ft | 473 kts | 278° |
| 2026-05-08 05:48 | 41.20517 | 37.34697 | 36187 ft | 473 kts | 278° |
| 2026-05-08 05:48 | 41.21152 | 37.26006 | 36185 ft | 472 kts | 278° |
| 2026-05-08 05:49 | 41.21792 | 37.17318 | 36184 ft | 472 kts | 278° |
| 2026-05-08 05:49 | 41.22485 | 37.08656 | 36182 ft | 471 kts | 278° |
| 2026-05-08 05:50 | 41.23174 | 36.99989 | 36188 ft | 471 kts | 278° |
| 2026-05-08 05:50 | 41.23848 | 36.91334 | 36185 ft | 471 kts | 278° |
| 2026-05-08 05:51 | 41.24512 | 36.82678 | 36184 ft | 471 kts | 278° |
| 2026-05-08 05:51 | 41.25170 | 36.74017 | 36183 ft | 471 kts | 278° |
| 2026-05-08 05:52 | 41.25822 | 36.65362 | 36185 ft | 470 kts | 278° |
| 2026-05-08 05:52 | 41.26529 | 36.56718 | 36181 ft | 469 kts | 282° |
| 2026-05-08 05:53 | 41.28177 | 36.48392 | 36185 ft | 464 kts | 292° |
| 2026-05-08 05:53 | 41.29958 | 36.41649 | 36179 ft | 465 kts | 291° |
| 2026-05-08 05:54 | 41.32063 | 36.33466 | 36184 ft | 465 kts | 291° |
| 2026-05-08 05:54 | 41.34130 | 36.25312 | 36185 ft | 465 kts | 291° |
| 2026-05-08 05:55 | 41.36189 | 36.17146 | 36173 ft | 465 kts | 291° |
| 2026-05-08 05:55 | 41.38243 | 36.08972 | 36175 ft | 465 kts | 291° |
| 2026-05-08 05:56 | 41.40281 | 36.00841 | 36188 ft | 465 kts | 291° |
| 2026-05-08 05:56 | 41.42336 | 35.92611 | 36165 ft | 465 kts | 291° |
| 2026-05-08 05:57 | 41.44368 | 35.84449 | 36185 ft | 464 kts | 291° |
| 2026-05-08 05:57 | 41.46393 | 35.76295 | 36178 ft | 463 kts | 291° |
| 2026-05-08 05:58 | 41.48407 | 35.68143 | 36176 ft | 462 kts | 291° |
| 2026-05-08 05:58 | 41.50415 | 35.60003 | 36181 ft | 461 kts | 291° |
| 2026-05-08 05:59 | 41.52409 | 35.51871 | 36170 ft | 461 kts | 290° |
| 2026-05-08 05:59 | 41.54397 | 35.43740 | 36174 ft | 461 kts | 291° |
| 2026-05-08 06:00 | 41.56380 | 35.35612 | 36175 ft | 461 kts | 290° |
| 2026-05-08 06:00 | 41.58357 | 35.27471 | 36174 ft | 461 kts | 290° |
| 2026-05-08 06:01 | 41.60329 | 35.19331 | 36175 ft | 461 kts | 290° |
| 2026-05-08 06:01 | 41.62293 | 35.11188 | 36171 ft | 459 kts | 290° |
| 2026-05-08 06:02 | 41.64248 | 35.03063 | 36176 ft | 459 kts | 290° |
| 2026-05-08 06:02 | 41.66195 | 34.94927 | 36176 ft | 459 kts | 290° |
| 2026-05-08 06:03 | 41.68138 | 34.86792 | 36169 ft | 459 kts | 290° |
| 2026-05-08 06:03 | 41.70073 | 34.78654 | 36168 ft | 459 kts | 290° |
| 2026-05-08 06:04 | 41.72005 | 34.70497 | 36171 ft | 459 kts | 290° |
| 2026-05-08 06:04 | 41.73931 | 34.62349 | 36164 ft | 459 kts | 290° |
| 2026-05-08 06:05 | 41.75848 | 34.54197 | 36171 ft | 458 kts | 290° |
| 2026-05-08 06:05 | 41.77748 | 34.46059 | 36175 ft | 457 kts | 290° |
| 2026-05-08 06:06 | 41.79652 | 34.37925 | 36143 ft | 457 kts | 290° |
| 2026-05-08 06:06 | 41.81541 | 34.29806 | 36165 ft | 456 kts | 290° |
| 2026-05-08 06:07 | 41.83423 | 34.21682 | 36167 ft | 456 kts | 290° |
| 2026-05-08 06:07 | 41.85297 | 34.13556 | 36171 ft | 456 kts | 290° |
| 2026-05-08 06:08 | 41.87168 | 34.05425 | 36163 ft | 456 kts | 290° |
| 2026-05-08 06:08 | 41.89043 | 33.97243 | 36170 ft | 456 kts | 290° |
| 2026-05-08 06:09 | 41.90901 | 33.89100 | 36166 ft | 456 kts | 290° |
| 2026-05-08 06:09 | 41.92741 | 33.81017 | 36168 ft | 456 kts | 290° |
| 2026-05-08 06:10 | 41.94598 | 33.72826 | 36166 ft | 455 kts | 289° |
| 2026-05-08 06:10 | 41.96342 | 33.64652 | 36155 ft | 455 kts | 287° |
| 2026-05-08 06:11 | 41.97894 | 33.56398 | 36152 ft | 456 kts | 287° |
| 2026-05-08 06:11 | 41.99444 | 33.48133 | 36153 ft | 455 kts | 287° |
| 2026-05-08 06:12 | 42.01014 | 33.39885 | 36163 ft | 456 kts | 287° |
| 2026-05-08 06:12 | 42.02583 | 33.31677 | 36155 ft | 455 kts | 287° |
| 2026-05-08 06:13 | 42.04161 | 33.23374 | 36152 ft | 455 kts | 287° |
| 2026-05-08 06:13 | 42.05720 | 33.15128 | 36154 ft | 455 kts | 287° |
| 2026-05-08 06:14 | 42.07278 | 33.06875 | 36155 ft | 455 kts | 287° |
| 2026-05-08 06:14 | 42.08944 | 32.98664 | 36153 ft | 455 kts | 288° |
| 2026-05-08 06:15 | 42.10653 | 32.90456 | 36150 ft | 455 kts | 288° |
| 2026-05-08 06:15 | 42.12340 | 32.82241 | 36152 ft | 455 kts | 288° |
| 2026-05-08 06:16 | 42.14012 | 32.74009 | 36146 ft | 456 kts | 287° |
| 2026-05-08 06:16 | 42.15682 | 32.65758 | 36149 ft | 456 kts | 287° |
| 2026-05-08 06:17 | 42.18172 | 32.53375 | 36150 ft | 456 kts | 287° |
| 2026-05-08 06:17 | 42.19822 | 32.45117 | 36147 ft | 456 kts | 287° |
| 2026-05-08 06:18 | 42.21470 | 32.36831 | 36146 ft | 456 kts | 287° |
| 2026-05-08 06:18 | 42.23111 | 32.28555 | 36146 ft | 456 kts | 287° |
| 2026-05-08 06:19 | 42.24745 | 32.20281 | 36143 ft | 456 kts | 287° |
| 2026-05-08 06:19 | 42.26379 | 32.12004 | 36142 ft | 456 kts | 287° |
| 2026-05-08 06:20 | 42.28002 | 32.03718 | 36143 ft | 456 kts | 286° |
| 2026-05-08 06:20 | 42.29613 | 31.95434 | 36142 ft | 456 kts | 286° |
| 2026-05-08 06:21 | 42.31220 | 31.87139 | 36144 ft | 456 kts | 286° |
| 2026-05-08 06:21 | 42.32821 | 31.78842 | 36142 ft | 456 kts | 286° |
| 2026-05-08 06:22 | 42.34416 | 31.70543 | 36142 ft | 456 kts | 286° |
| 2026-05-08 06:22 | 42.36005 | 31.62244 | 36144 ft | 456 kts | 285° |
| 2026-05-08 06:23 | 42.37589 | 31.53930 | 36141 ft | 456 kts | 285° |
| 2026-05-08 06:23 | 42.39169 | 31.45609 | 36140 ft | 457 kts | 285° |
| 2026-05-08 06:24 | 42.40742 | 31.37282 | 36142 ft | 457 kts | 285° |
| 2026-05-08 06:24 | 42.42309 | 31.28951 | 36139 ft | 457 kts | 285° |
| 2026-05-08 06:25 | 42.43874 | 31.20597 | 36138 ft | 458 kts | 285° |
| 2026-05-08 06:25 | 42.45425 | 31.12285 | 36139 ft | 458 kts | 285° |
| 2026-05-08 06:26 | 42.46993 | 31.03858 | 36139 ft | 459 kts | 285° |
| 2026-05-08 06:26 | 42.48548 | 30.95478 | 36137 ft | 459 kts | 285° |
| 2026-05-08 06:27 | 42.50089 | 30.87132 | 36137 ft | 459 kts | 285° |
| 2026-05-08 06:27 | 42.51384 | 30.80097 | 36136 ft | 460 kts | 285° |
| 2026-05-08 06:28 | 42.53175 | 30.70314 | 36133 ft | 460 kts | 284° |
| 2026-05-08 06:28 | 42.54462 | 30.63252 | 36135 ft | 460 kts | 284° |
| 2026-05-08 06:29 | 42.55991 | 30.54830 | 36131 ft | 460 kts | 284° |
| 2026-05-08 06:29 | 42.57513 | 30.46407 | 36126 ft | 460 kts | 284° |
| 2026-05-08 06:30 | 42.59029 | 30.37984 | 36127 ft | 459 kts | 284° |
| 2026-05-08 06:30 | 42.60711 | 30.29634 | 36119 ft | 458 kts | 291° |
| 2026-05-08 06:31 | 42.63612 | 30.21956 | 36134 ft | 458 kts | 303° |
| 2026-05-08 06:31 | 42.67457 | 30.15059 | 36133 ft | 458 kts | 307° |
| 2026-05-08 06:32 | 42.71378 | 30.08239 | 36125 ft | 458 kts | 307° |
| 2026-05-08 06:32 | 42.75275 | 30.01390 | 36129 ft | 458 kts | 307° |
| 2026-05-08 06:33 | 42.79157 | 29.94515 | 36122 ft | 458 kts | 307° |
| 2026-05-08 06:33 | 42.83032 | 29.87627 | 36120 ft | 458 kts | 307° |
| 2026-05-08 06:34 | 42.86901 | 29.80732 | 36121 ft | 458 kts | 307° |
| 2026-05-08 06:34 | 42.90767 | 29.73828 | 36121 ft | 458 kts | 307° |
| 2026-05-08 06:35 | 42.94627 | 29.66920 | 36120 ft | 458 kts | 307° |
| 2026-05-08 06:35 | 42.98484 | 29.60002 | 36116 ft | 457 kts | 306° |
| 2026-05-08 06:36 | 43.02335 | 29.53079 | 36117 ft | 457 kts | 306° |
| 2026-05-08 06:36 | 43.06178 | 29.46153 | 36119 ft | 457 kts | 306° |
| 2026-05-08 06:37 | 43.10009 | 29.39234 | 36118 ft | 456 kts | 306° |
| 2026-05-08 06:38 | 43.17484 | 29.25685 | 36118 ft | 456 kts | 306° |
| 2026-05-08 06:38 | 43.21301 | 29.18742 | 36113 ft | 456 kts | 306° |
| 2026-05-08 06:39 | 43.25144 | 29.11735 | 36130 ft | 464 kts | 306° |
| 2026-05-08 06:39 | 43.29053 | 29.04590 | 36124 ft | 471 kts | 306° |
| 2026-05-08 06:40 | 43.33005 | 28.97350 | 36124 ft | 477 kts | 306° |
| 2026-05-08 06:40 | 43.36992 | 28.90028 | 36116 ft | 479 kts | 306° |
| 2026-05-08 06:41 | 43.40937 | 28.82616 | 36105 ft | 480 kts | 303° |
| 2026-05-08 06:41 | 43.44443 | 28.74792 | 36098 ft | 479 kts | 300° |
| 2026-05-08 06:42 | 43.47819 | 28.66955 | 36100 ft | 478 kts | 300° |
| 2026-05-08 06:42 | 43.51230 | 28.59105 | 36097 ft | 476 kts | 301° |
| 2026-05-08 06:43 | 43.54649 | 28.51306 | 36087 ft | 474 kts | 301° |
| 2026-05-08 06:43 | 43.58059 | 28.43537 | 36083 ft | 472 kts | 301° |
| 2026-05-08 06:44 | 43.61457 | 28.35779 | 36083 ft | 471 kts | 301° |
| 2026-05-08 06:44 | 43.64839 | 28.28034 | 36083 ft | 471 kts | 300° |
| 2026-05-08 06:45 | 43.68217 | 28.20272 | 36083 ft | 471 kts | 300° |
| 2026-05-08 06:45 | 43.71570 | 28.12547 | 36085 ft | 471 kts | 300° |
| 2026-05-08 06:46 | 43.74932 | 28.04780 | 36086 ft | 471 kts | 300° |
| 2026-05-08 06:46 | 43.78289 | 27.97005 | 36086 ft | 470 kts | 300° |
| 2026-05-08 06:47 | 43.81643 | 27.89214 | 36085 ft | 470 kts | 300° |
| 2026-05-08 06:47 | 43.84986 | 27.81428 | 36079 ft | 470 kts | 300° |
| 2026-05-08 06:48 | 43.88323 | 27.73635 | 36080 ft | 470 kts | 300° |
| 2026-05-08 06:48 | 43.91659 | 27.65823 | 36084 ft | 470 kts | 300° |
| 2026-05-08 06:49 | 43.94989 | 27.58006 | 36076 ft | 470 kts | 300° |
| 2026-05-08 06:49 | 43.98315 | 27.50177 | 36073 ft | 470 kts | 300° |
| 2026-05-08 06:50 | 44.01609 | 27.42399 | 36074 ft | 469 kts | 299° |
| 2026-05-08 06:50 | 44.04929 | 27.34540 | 36068 ft | 469 kts | 299° |
| 2026-05-08 06:51 | 44.08227 | 27.26714 | 36072 ft | 469 kts | 299° |
| 2026-05-08 06:51 | 44.11519 | 27.18878 | 36071 ft | 469 kts | 299° |
| 2026-05-08 06:52 | 44.14807 | 27.11031 | 36069 ft | 469 kts | 299° |
| 2026-05-08 06:52 | 44.18089 | 27.03174 | 36066 ft | 469 kts | 298° |
| 2026-05-08 06:53 | 44.21364 | 26.95314 | 36062 ft | 469 kts | 298° |
| 2026-05-08 06:53 | 44.24632 | 26.87452 | 36069 ft | 469 kts | 298° |
| 2026-05-08 06:54 | 44.27894 | 26.79579 | 36063 ft | 469 kts | 298° |
| 2026-05-08 06:54 | 44.31153 | 26.71694 | 36063 ft | 469 kts | 298° |
| 2026-05-08 06:55 | 44.34404 | 26.63804 | 36060 ft | 469 kts | 298° |
| 2026-05-08 06:55 | 44.37655 | 26.55895 | 36061 ft | 469 kts | 298° |
| 2026-05-08 06:56 | 44.40898 | 26.47981 | 36064 ft | 469 kts | 298° |
| 2026-05-08 06:56 | 44.44136 | 26.40057 | 36068 ft | 469 kts | 298° |
| 2026-05-08 06:57 | 44.47369 | 26.32124 | 36075 ft | 469 kts | 298° |
| 2026-05-08 06:57 | 44.50597 | 26.24182 | 36076 ft | 470 kts | 298° |
| 2026-05-08 06:58 | 44.53825 | 26.16213 | 36078 ft | 469 kts | 297° |
| 2026-05-08 06:58 | 44.57041 | 26.08257 | 36077 ft | 469 kts | 297° |
| 2026-05-08 06:59 | 44.60254 | 26.00285 | 36076 ft | 469 kts | 297° |
| 2026-05-08 06:59 | 44.63459 | 25.92307 | 36072 ft | 469 kts | 297° |
| 2026-05-08 07:00 | 44.66659 | 25.84319 | 36071 ft | 469 kts | 297° |
| 2026-05-08 07:00 | 44.69853 | 25.76326 | 36070 ft | 469 kts | 297° |
| 2026-05-08 07:01 | 44.73042 | 25.68322 | 36065 ft | 469 kts | 297° |
| 2026-05-08 07:01 | 44.76227 | 25.60306 | 36061 ft | 469 kts | 297° |
| 2026-05-08 07:02 | 44.79406 | 25.52280 | 36063 ft | 469 kts | 297° |
| 2026-05-08 07:02 | 44.82579 | 25.44246 | 36061 ft | 470 kts | 297° |
| 2026-05-08 07:03 | 44.85750 | 25.36195 | 36042 ft | 470 kts | 297° |
| 2026-05-08 07:03 | 44.88912 | 25.28143 | 36068 ft | 469 kts | 296° |
| 2026-05-08 07:04 | 44.92067 | 25.20087 | 36071 ft | 469 kts | 296° |
| 2026-05-08 07:04 | 44.95218 | 25.12019 | 36072 ft | 469 kts | 296° |